Time,TemperatureF,DewpointF,PressureIn,WindDirection,WindDirectionDegrees,WindSpeedMPH,WindSpeedGustMPH,Humidity,HourlyPrecipIn,Conditions,Clouds,dailyrainin,SolarRadiationWatts/m^2,SoftwareType,DateUTC
2013-03-18 00:02:00,27.3,19.8,30.11,SSE,168,0.0,0.0,73,0.00,,,0.00,0.0,WeatherDisplay:10.37,2013-03-18 07:02:00,
2013-03-18 00:03:00,27.3,19.8,30.11,SSE,168,0.0,0.0,73,0.00,,,0.00,0.0,WeatherDisplay:10.37,2013-03-18 07:03:00,
2013-03-18 00:07:00,27.2,19.7,30.11,SSE,168,0.0,0.0,73,0.00,,,0.00,0.0,WeatherDisplay:10.37,2013-03-18 07:07:00,
2013-03-18 00:08:00,27.2,19.7,30.11,SSE,168,0.0,0.0,73,0.00,,,0.00,0.0,WeatherDisplay:10.37,2013-03-18 07:08:00,
2013-03-18 00:12:00,27.1,19.3,30.12,SSE,168,0.0,0.0,72,0.00,,,0.00,0.0,WeatherDisplay:10.37,2013-03-18 07:12:00,
2013-03-18 00:13:00,27.1,19.3,30.12,SSE,168,0.0,0.0,72,0.00,,,0.00,0.0,WeatherDisplay:10.37,2013-03-18 07:13:00,
2013-03-18 00:14:00,27.1,19.6,30.12,SSE,168,0.0,0.0,73,0.00,,,0.00,0.0,WeatherDisplay:10.37,2013-03-18 07:14:00,
2013-03-18 00:17:00,26.9,19.1,30.12,SSE,168,0.0,0.0,72,0.00,,,0.00,0.0,WeatherDisplay:10.37,2013-03-18 07:17:00,
2013-03-18 00:18:00,26.9,19.4,30.12,SSE,168,0.0,0.0,73,0.00,,,0.00,0.0,WeatherDisplay:10.37,2013-03-18 07:18:00,
2013-03-18 00:19:00,26.9,19.4,30.12,SSE,168,0.0,0.0,73,0.00,,,0.00,0.0,WeatherDisplay:10.37,2013-03-18 07:19:00,
2013-03-18 00:22:00,26.8,19.3,30.12,ESE,123,2.3,2.3,73,0.00,,,0.00,0.0,WeatherDisplay:10.37,2013-03-18 07:22:00,
2013-03-18 00:23:00,26.8,19.3,30.12,ESE,123,3.5,3.5,73,0.00,,,0.00,0.0,WeatherDisplay:10.37,2013-03-18 07:23:00,
2013-03-18 00:24:00,26.8,19.3,30.12,ESE,123,3.5,3.5,73,0.00,,,0.00,0.0,WeatherDisplay:10.37,2013-03-18 07:24:00,
2013-03-18 00:27:00,26.7,19.5,30.11,ESE,120,2.3,2.3,74,0.00,,,0.00,0.0,WeatherDisplay:10.37,2013-03-18 07:27:00,
2013-03-18 00:29:00,26.7,19.2,30.11,ESE,123,4.0,4.0,73,0.00,,,0.00,0.0,WeatherDisplay:10.37,2013-03-18 07:29:00,
2013-03-18 00:30:00,26.7,19.5,30.11,SE,127,3.5,3.5,74,0.00,,,0.00,0.0,WeatherDisplay:10.37,2013-03-18 07:30:00,
2013-03-18 00:33:00,26.4,18.9,30.11,SE,138,1.2,0.0,73,0.00,,,0.00,0.0,WeatherDisplay:10.37,2013-03-18 07:33:00,
2013-03-18 00:34:00,26.4,19.2,30.11,WSW,255,4.0,4.0,74,0.00,,,0.00,0.0,WeatherDisplay:10.37,2013-03-18 07:34:00,
2013-03-18 00:35:00,26.5,19.3,30.11,West,263,3.5,3.5,74,0.00,,,0.00,0.0,WeatherDisplay:10.37,2013-03-18 07:35:00,
2013-03-18 00:38:00,26.7,19.8,30.11,WNW,285,3.5,3.5,75,0.00,,,0.00,0.0,WeatherDisplay:10.37,2013-03-18 07:38:00,
2013-03-18 00:39:00,26.7,19.5,30.11,WNW,285,3.5,3.5,74,0.00,,,0.00,0.0,WeatherDisplay:10.37,2013-03-18 07:39:00,
2013-03-18 00:40:00,26.7,19.5,30.11,WNW,285,3.5,3.5,74,0.00,,,0.00,0.0,WeatherDisplay:10.37,2013-03-18 07:40:00,
2013-03-18 00:43:00,26.7,19.8,30.11,West,277,3.5,3.5,75,0.00,,,0.00,0.0,WeatherDisplay:10.37,2013-03-18 07:43:00,
2013-03-18 00:45:00,26.7,19.5,30.11,West,277,2.3,2.3,74,0.00,,,0.00,0.0,WeatherDisplay:10.37,2013-03-18 07:45:00,
2013-03-18 00:48:00,26.7,19.8,30.11,West,277,2.3,2.3,75,0.00,,,0.00,0.0,WeatherDisplay:10.37,2013-03-18 07:48:00,
2013-03-18 00:50:00,26.7,19.8,30.11,West,277,0.0,0.0,75,0.00,,,0.00,0.0,WeatherDisplay:10.37,2013-03-18 07:50:00,
2013-03-18 00:53:00,26.9,20.0,30.11,West,277,3.5,3.5,75,0.00,,,0.00,0.0,WeatherDisplay:10.37,2013-03-18 07:53:00,
2013-03-18 00:55:00,26.9,19.7,30.11,West,277,1.2,1.2,74,0.00,,,0.00,0.0,WeatherDisplay:10.37,2013-03-18 07:55:00,
2013-03-18 00:56:00,27.0,19.8,30.11,West,277,1.2,1.2,74,0.00,,,0.00,0.0,WeatherDisplay:10.37,2013-03-18 07:56:00,
2013-03-18 00:58:00,27.0,20.1,30.11,West,277,2.3,2.3,75,0.00,,,0.00,0.0,WeatherDisplay:10.37,2013-03-18 07:58:00,
2013-03-18 01:00:00,27.0,19.8,30.11,West,277,0.0,0.2,74,0.00,,,0.00,0.0,WeatherDisplay:10.37,2013-03-18 08:00:00,
2013-03-18 01:01:00,27.0,19.8,30.11,West,276,0.0,0.2,74,0.00,,,0.00,0.0,WeatherDisplay:10.37,2013-03-18 08:01:00,
2013-03-18 01:03:00,27.2,20.0,30.11,West,277,3.5,3.5,74,0.00,,,0.00,0.0,WeatherDisplay:10.37,2013-03-18 08:03:00,
2013-03-18 01:05:00,27.3,20.1,30.11,West,277,3.5,3.5,74,0.00,,,0.00,0.0,WeatherDisplay:10.37,2013-03-18 08:05:00,
2013-03-18 01:06:00,27.3,20.1,30.11,West,276,3.5,3.5,74,0.00,,,0.00,0.0,WeatherDisplay:10.37,2013-03-18 08:06:00,
2013-03-18 01:07:00,27.3,20.1,30.11,West,276,2.3,2.3,74,0.00,,,0.00,0.0,WeatherDisplay:10.37,2013-03-18 08:07:00,
2013-03-18 01:08:00,27.3,20.1,30.11,West,277,1.2,1.2,74,0.00,,,0.00,0.0,WeatherDisplay:10.37,2013-03-18 08:08:00,
2013-03-18 01:10:00,27.2,20.0,30.12,West,276,0.0,0.0,74,0.00,,,0.00,0.0,WeatherDisplay:10.37,2013-03-18 08:10:00,
2013-03-18 01:11:00,27.2,20.0,30.12,West,276,0.0,0.0,74,0.00,,,0.00,0.0,WeatherDisplay:10.37,2013-03-18 08:11:00,
2013-03-18 01:12:00,27.2,20.0,30.11,West,276,1.0,1.0,74,0.00,,,0.00,0.0,WeatherDisplay:10.37,2013-03-18 08:12:00,
2013-03-18 01:13:00,27.2,20.0,30.12,West,276,2.3,2.3,74,0.00,,,0.00,0.0,WeatherDisplay:10.37,2013-03-18 08:13:00,
2013-03-18 01:15:00,27.1,19.9,30.11,West,276,0.0,0.0,74,0.00,,,0.00,0.0,WeatherDisplay:10.37,2013-03-18 08:15:00,
2013-03-18 01:16:00,27.1,19.9,30.11,West,276,0.0,0.0,74,0.00,,,0.00,0.0,WeatherDisplay:10.37,2013-03-18 08:16:00,
2013-03-18 01:17:00,27.1,19.9,30.12,West,276,0.0,0.0,74,0.00,,,0.00,0.0,WeatherDisplay:10.37,2013-03-18 08:17:00,
2013-03-18 01:18:00,27.1,19.9,30.12,West,276,0.0,0.0,74,0.00,,,0.00,0.0,WeatherDisplay:10.37,2013-03-18 08:18:00,
2013-03-18 01:20:00,27.1,19.9,30.12,West,276,0.0,0.0,74,0.00,,,0.00,0.0,WeatherDisplay:10.37,2013-03-18 08:20:00,
2013-03-18 01:21:00,27.1,19.9,30.12,West,276,0.0,0.0,74,0.00,,,0.00,0.0,WeatherDisplay:10.37,2013-03-18 08:21:00,
2013-03-18 01:22:00,27.0,19.8,30.12,West,276,1.2,1.2,74,0.00,,,0.00,0.0,WeatherDisplay:10.37,2013-03-18 08:22:00,
2013-03-18 01:23:00,27.0,19.8,30.12,West,276,1.2,1.2,74,0.00,,,0.00,0.0,WeatherDisplay:10.37,2013-03-18 08:23:00,
2013-03-18 01:26:00,26.9,19.7,30.12,ESE,119,3.5,3.5,74,0.00,,,0.00,0.0,WeatherDisplay:10.37,2013-03-18 08:26:00,
2013-03-18 01:27:00,26.8,19.6,30.12,ESE,119,0.0,0.0,74,0.00,,,0.00,0.0,WeatherDisplay:10.37,2013-03-18 08:27:00,
2013-03-18 01:28:00,26.8,19.6,30.12,ESE,119,0.0,0.0,74,0.00,,,0.00,0.0,WeatherDisplay:10.37,2013-03-18 08:28:00,
2013-03-18 01:31:00,26.7,19.5,30.11,ESE,119,1.2,0.0,74,0.00,,,0.00,0.0,WeatherDisplay:10.37,2013-03-18 08:31:00,
2013-03-18 01:32:00,26.6,19.4,30.11,ESE,119,0.0,0.0,74,0.00,,,0.00,0.0,WeatherDisplay:10.37,2013-03-18 08:32:00,
2013-03-18 01:33:00,26.6,19.4,30.11,ESE,119,0.0,0.0,74,0.00,,,0.00,0.0,WeatherDisplay:10.37,2013-03-18 08:33:00,
2013-03-18 01:36:00,26.4,19.2,30.11,ESE,119,0.0,0.0,74,0.00,,,0.00,0.0,WeatherDisplay:10.37,2013-03-18 08:36:00,
2013-03-18 01:37:00,26.3,19.5,30.11,SE,144,1.2,1.2,75,0.00,,,0.00,0.0,WeatherDisplay:10.37,2013-03-18 08:37:00,
2013-03-18 01:38:00,26.2,19.4,30.11,SSE,157,1.2,1.2,75,0.00,,,0.00,0.0,WeatherDisplay:10.37,2013-03-18 08:38:00,
2013-03-18 01:39:00,26.2,19.4,30.11,SSE,159,1.2,1.2,75,0.00,,,0.00,0.0,WeatherDisplay:10.37,2013-03-18 08:39:00,
2013-03-18 01:41:00,26.2,19.4,30.12,SSE,165,2.3,2.3,75,0.00,,,0.00,0.0,WeatherDisplay:10.37,2013-03-18 08:41:00,
2013-03-18 01:42:00,26.1,19.3,30.12,SSE,163,2.3,2.3,75,0.00,,,0.00,0.0,WeatherDisplay:10.37,2013-03-18 08:42:00,
2013-03-18 01:43:00,26.1,19.3,30.12,SSE,163,1.2,1.2,75,0.00,,,0.00,0.0,WeatherDisplay:10.37,2013-03-18 08:43:00,
2013-03-18 01:44:00,26.1,19.6,30.12,SSE,163,1.2,1.2,76,0.00,,,0.00,0.0,WeatherDisplay:10.37,2013-03-18 08:44:00,
2013-03-18 01:46:00,26.0,19.5,30.12,SSE,163,2.3,2.3,76,0.00,,,0.00,0.0,WeatherDisplay:10.37,2013-03-18 08:46:00,
2013-03-18 01:48:00,26.0,19.5,30.12,SSE,163,2.3,0.0,76,0.00,,,0.00,0.0,WeatherDisplay:10.37,2013-03-18 08:48:00,
2013-03-18 01:49:00,26.0,19.5,30.12,SSE,163,0.0,0.0,76,0.00,,,0.00,0.0,WeatherDisplay:10.37,2013-03-18 08:49:00,
2013-03-18 01:52:00,25.9,19.4,30.12,SSE,159,1.2,0.0,76,0.00,,,0.00,0.0,WeatherDisplay:10.37,2013-03-18 08:52:00,
2013-03-18 01:53:00,25.8,19.3,30.12,SSE,159,0.0,0.0,76,0.00,,,0.00,0.0,WeatherDisplay:10.37,2013-03-18 08:53:00,
2013-03-18 01:54:00,25.8,19.3,30.12,SSE,159,0.0,0.0,76,0.00,,,0.00,0.0,WeatherDisplay:10.37,2013-03-18 08:54:00,
2013-03-18 01:57:00,25.7,19.2,30.12,SSE,160,2.3,2.3,76,0.00,,,0.00,0.0,WeatherDisplay:10.37,2013-03-18 08:57:00,
2013-03-18 01:58:00,25.7,19.2,30.12,SSE,167,2.3,2.3,76,0.00,,,0.00,0.0,WeatherDisplay:10.37,2013-03-18 08:58:00,
2013-03-18 02:00:00,25.8,19.6,30.12,South,172,1.2,1.2,77,0.00,,,0.00,0.0,WeatherDisplay:10.37,2013-03-18 09:00:00,
2013-03-18 02:03:00,25.8,19.3,30.11,South,172,0.0,0.0,76,0.00,,,0.00,0.0,WeatherDisplay:10.37,2013-03-18 09:03:00,
2013-03-18 02:05:00,25.7,19.2,30.11,South,172,1.2,1.2,76,0.00,,,0.00,0.0,WeatherDisplay:10.37,2013-03-18 09:05:00,
2013-03-18 02:06:00,25.7,19.2,30.11,South,172,1.2,0.0,76,0.00,,,0.00,0.0,WeatherDisplay:10.37,2013-03-18 09:06:00,
2013-03-18 02:08:00,25.6,19.1,30.11,South,172,1.2,1.2,76,0.00,,,0.00,0.0,WeatherDisplay:10.37,2013-03-18 09:08:00,
2013-03-18 02:10:00,25.5,19.3,30.11,South,171,1.2,1.2,77,0.00,,,0.00,0.0,WeatherDisplay:10.37,2013-03-18 09:10:00,
2013-03-18 02:12:00,25.4,19.2,30.11,SSE,165,3.0,3.0,77,0.00,,,0.00,0.0,WeatherDisplay:10.37,2013-03-18 09:12:00,
2013-03-18 02:13:00,25.3,19.1,30.11,SSE,163,3.5,3.5,77,0.00,,,0.00,0.0,WeatherDisplay:10.37,2013-03-18 09:13:00,
2013-03-18 02:14:00,25.3,19.1,30.11,SSE,163,3.5,3.5,77,0.00,,,0.00,0.0,WeatherDisplay:10.37,2013-03-18 09:14:00,
2013-03-18 02:15:00,25.2,19.0,30.11,SSE,163,2.3,2.3,77,0.00,,,0.00,0.0,WeatherDisplay:10.37,2013-03-18 09:15:00,
2013-03-18 02:17:00,25.1,18.9,30.11,SSE,163,2.3,2.3,77,0.00,,,0.00,0.0,WeatherDisplay:10.37,2013-03-18 09:17:00,
2013-03-18 02:18:00,25.0,18.8,30.11,SSE,163,1.2,1.2,77,0.00,,,0.00,0.0,WeatherDisplay:10.37,2013-03-18 09:18:00,
2013-03-18 02:19:00,24.9,18.7,30.11,SSE,163,1.2,0.0,77,0.00,,,0.00,0.0,WeatherDisplay:10.37,2013-03-18 09:19:00,
2013-03-18 02:21:00,24.9,18.7,30.11,SSE,163,0.0,0.1,77,0.00,,,0.00,0.0,WeatherDisplay:10.37,2013-03-18 09:21:00,
2013-03-18 02:22:00,24.9,19.0,30.11,SSE,163,0.0,0.0,78,0.00,,,0.00,0.0,WeatherDisplay:10.37,2013-03-18 09:22:00,
2013-03-18 02:23:00,24.8,18.9,30.11,SSE,163,1.2,0.0,78,0.00,,,0.00,0.0,WeatherDisplay:10.37,2013-03-18 09:23:00,
2013-03-18 02:25:00,24.8,18.9,30.11,SSE,163,2.0,2.0,78,0.00,,,0.00,0.0,WeatherDisplay:10.37,2013-03-18 09:25:00,
2013-03-18 02:27:00,24.7,18.8,30.11,SSE,163,2.3,2.3,78,0.00,,,0.00,0.0,WeatherDisplay:10.37,2013-03-18 09:27:00,
2013-03-18 02:29:00,24.6,18.7,30.11,SSE,163,2.3,2.3,78,0.00,,,0.00,0.0,WeatherDisplay:10.37,2013-03-18 09:29:00,
2013-03-18 02:30:00,24.6,18.7,30.11,SSE,163,1.2,1.2,78,0.00,,,0.00,0.0,WeatherDisplay:10.37,2013-03-18 09:30:00,
2013-03-18 02:32:00,24.5,18.6,30.12,SSE,163,1.2,1.2,78,0.00,,,0.00,0.0,WeatherDisplay:10.37,2013-03-18 09:32:00,
2013-03-18 02:34:00,24.5,18.6,30.12,SSE,163,1.2,1.2,78,0.00,,,0.00,0.0,WeatherDisplay:10.37,2013-03-18 09:34:00,
2013-03-18 02:35:00,24.5,18.9,30.12,SSE,163,1.2,1.2,79,0.00,,,0.00,0.0,WeatherDisplay:10.37,2013-03-18 09:35:00,
2013-03-18 02:37:00,24.6,19.0,30.12,SSE,163,1.2,1.2,79,0.00,,,0.00,0.0,WeatherDisplay:10.37,2013-03-18 09:37:00,
2013-03-18 02:39:00,24.6,18.7,30.11,SSE,163,0.0,0.0,78,0.00,,,0.00,0.0,WeatherDisplay:10.37,2013-03-18 09:39:00,
2013-03-18 02:40:00,24.6,18.7,30.11,SSE,163,0.0,0.3,78,0.00,,,0.00,0.0,WeatherDisplay:10.37,2013-03-18 09:40:00,
2013-03-18 02:42:00,24.5,18.6,30.11,SSE,163,1.2,1.2,78,0.00,,,0.00,0.0,WeatherDisplay:10.37,2013-03-18 09:42:00,
2013-03-18 02:44:00,24.3,18.4,30.11,SSE,163,1.2,1.2,78,0.00,,,0.00,0.0,WeatherDisplay:10.37,2013-03-18 09:44:00,
2013-03-18 02:45:00,24.2,18.3,30.11,SSE,163,1.2,0.0,78,0.00,,,0.00,0.0,WeatherDisplay:10.37,2013-03-18 09:45:00,
2013-03-18 02:47:00,24.2,18.6,30.11,SSE,163,1.2,1.2,79,0.00,,,0.00,0.0,WeatherDisplay:10.37,2013-03-18 09:47:00,
2013-03-18 02:48:00,24.2,18.6,30.11,SSE,163,2.3,2.3,79,0.00,,,0.00,0.0,WeatherDisplay:10.37,2013-03-18 09:48:00,
2013-03-18 02:49:00,24.2,18.6,30.11,SSE,163,1.2,1.2,79,0.00,,,0.00,0.0,WeatherDisplay:10.37,2013-03-18 09:49:00,
2013-03-18 02:50:00,24.2,18.6,30.11,SSE,163,1.2,0.0,79,0.00,,,0.00,0.0,WeatherDisplay:10.37,2013-03-18 09:50:00,
2013-03-18 02:52:00,24.2,18.6,30.11,South,190,3.5,3.5,79,0.00,,,0.00,0.0,WeatherDisplay:10.37,2013-03-18 09:52:00,
2013-03-18 02:53:00,24.2,18.6,30.11,South,188,3.5,3.5,79,0.00,,,0.00,0.0,WeatherDisplay:10.37,2013-03-18 09:53:00,
2013-03-18 02:54:00,24.2,18.6,30.11,South,181,2.3,2.3,79,0.00,,,0.00,0.0,WeatherDisplay:10.37,2013-03-18 09:54:00,
2013-03-18 02:56:00,24.2,18.6,30.11,South,180,1.2,0.0,79,0.00,,,0.00,0.0,WeatherDisplay:10.37,2013-03-18 09:56:00,
2013-03-18 02:58:00,24.2,18.6,30.11,South,180,1.2,0.0,79,0.00,,,0.00,0.0,WeatherDisplay:10.37,2013-03-18 09:58:00,
2013-03-18 03:00:00,24.1,18.5,30.11,South,180,0.0,0.0,79,0.00,,,0.00,0.0,WeatherDisplay:10.37,2013-03-18 10:00:00,
2013-03-18 03:03:00,24.0,18.4,30.11,South,178,1.2,1.2,79,0.00,,,0.00,0.0,WeatherDisplay:10.37,2013-03-18 10:03:00,
2013-03-18 03:04:00,24.0,18.4,30.11,South,176,1.2,1.2,79,0.00,,,0.00,0.0,WeatherDisplay:10.37,2013-03-18 10:04:00,
2013-03-18 03:05:00,24.0,18.4,30.11,South,171,1.2,1.2,79,0.00,,,0.00,0.0,WeatherDisplay:10.37,2013-03-18 10:05:00,
2013-03-18 03:08:00,23.8,17.9,30.11,South,170,2.3,2.3,78,0.00,,,0.00,0.0,WeatherDisplay:10.37,2013-03-18 10:08:00,
2013-03-18 03:09:00,23.8,17.9,30.12,South,170,1.2,1.2,78,0.00,,,0.00,0.0,WeatherDisplay:10.37,2013-03-18 10:09:00,
2013-03-18 03:10:00,23.7,17.8,30.12,South,170,1.2,1.2,78,0.00,,,0.00,0.0,WeatherDisplay:10.37,2013-03-18 10:10:00,
2013-03-18 03:13:00,23.5,17.9,30.12,South,170,2.3,2.3,79,0.00,,,0.00,0.0,WeatherDisplay:10.37,2013-03-18 10:13:00,
2013-03-18 03:14:00,23.5,17.9,30.12,South,170,1.2,1.2,79,0.00,,,0.00,0.0,WeatherDisplay:10.37,2013-03-18 10:14:00,
2013-03-18 03:15:00,23.4,17.8,30.12,South,170,2.3,2.3,79,0.00,,,0.00,0.0,WeatherDisplay:10.37,2013-03-18 10:15:00,
2013-03-18 03:18:00,23.4,17.8,30.12,South,170,0.0,0.0,79,0.00,,,0.00,0.0,WeatherDisplay:10.37,2013-03-18 10:18:00,
2013-03-18 03:19:00,23.4,17.8,30.12,South,170,0.0,0.0,79,0.00,,,0.00,0.0,WeatherDisplay:10.37,2013-03-18 10:19:00,
2013-03-18 03:20:00,23.3,17.7,30.12,South,170,0.0,0.0,79,0.00,,,0.00,0.0,WeatherDisplay:10.37,2013-03-18 10:20:00,
2013-03-18 03:23:00,23.3,17.7,30.12,South,170,1.2,0.0,79,0.00,,,0.00,0.0,WeatherDisplay:10.37,2013-03-18 10:23:00,
2013-03-18 03:25:00,23.2,17.7,30.12,South,170,0.0,0.0,79,0.00,,,0.00,0.0,WeatherDisplay:10.37,2013-03-18 10:25:00,
2013-03-18 03:28:00,23.1,17.6,30.12,South,170,0.0,0.0,79,0.00,,,0.00,0.0,WeatherDisplay:10.37,2013-03-18 10:28:00,
2013-03-18 03:30:00,23.0,17.5,30.12,South,170,0.0,0.0,79,0.00,,,0.00,0.0,WeatherDisplay:10.37,2013-03-18 10:30:00,
2013-03-18 03:32:00,23.0,17.7,30.12,South,170,0.0,0.0,80,0.00,,,0.00,0.0,WeatherDisplay:10.37,2013-03-18 10:32:00,
2013-03-18 03:33:00,22.9,17.7,30.12,South,170,0.0,0.0,80,0.00,,,0.00,0.0,WeatherDisplay:10.37,2013-03-18 10:33:00,
2013-03-18 03:35:00,22.8,17.6,30.12,South,170,0.0,0.0,80,0.00,,,0.00,0.0,WeatherDisplay:10.37,2013-03-18 10:35:00,
2013-03-18 03:37:00,22.7,17.5,30.11,South,170,1.2,0.0,80,0.00,,,0.00,0.0,WeatherDisplay:10.37,2013-03-18 10:37:00,
2013-03-18 03:38:00,22.7,17.5,30.11,South,170,0.0,0.0,80,0.00,,,0.00,0.0,WeatherDisplay:10.37,2013-03-18 10:38:00,
2013-03-18 03:40:00,22.6,17.4,30.12,South,170,0.0,0.0,80,0.00,,,0.00,0.0,WeatherDisplay:10.37,2013-03-18 10:40:00,
2013-03-18 03:42:00,22.6,17.6,30.12,South,170,1.2,0.0,81,0.00,,,0.00,0.0,WeatherDisplay:10.37,2013-03-18 10:42:00,
2013-03-18 03:43:00,22.6,17.6,30.12,South,170,2.3,2.3,81,0.00,,,0.00,0.0,WeatherDisplay:10.37,2013-03-18 10:43:00,
2013-03-18 03:44:00,22.6,17.6,30.12,South,170,2.3,2.3,81,0.00,,,0.00,0.0,WeatherDisplay:10.37,2013-03-18 10:44:00,
2013-03-18 03:45:00,22.6,17.6,30.11,South,170,3.5,3.5,81,0.00,,,0.00,0.0,WeatherDisplay:10.37,2013-03-18 10:45:00,
2013-03-18 03:47:00,22.8,17.8,30.12,South,170,2.3,2.3,81,0.00,,,0.00,0.0,WeatherDisplay:10.37,2013-03-18 10:47:00,
2013-03-18 03:48:00,22.8,17.8,30.11,South,170,2.3,2.3,81,0.00,,,0.00,0.0,WeatherDisplay:10.37,2013-03-18 10:48:00,
2013-03-18 03:49:00,22.9,17.9,30.11,South,170,2.3,2.3,81,0.00,,,0.00,0.0,WeatherDisplay:10.37,2013-03-18 10:49:00,
2013-03-18 03:50:00,22.9,17.9,30.11,South,170,2.3,2.3,81,0.00,,,0.00,0.0,WeatherDisplay:10.37,2013-03-18 10:50:00,
2013-03-18 03:52:00,22.9,17.9,30.12,South,170,2.3,2.3,81,0.00,,,0.00,0.0,WeatherDisplay:10.37,2013-03-18 10:52:00,
2013-03-18 03:53:00,22.8,17.6,30.12,South,170,1.2,0.0,80,0.00,,,0.00,0.0,WeatherDisplay:10.37,2013-03-18 10:53:00,
2013-03-18 03:54:00,22.8,17.6,30.12,South,170,0.0,0.0,80,0.00,,,0.00,0.0,WeatherDisplay:10.37,2013-03-18 10:54:00,
2013-03-18 03:55:00,22.7,17.5,30.12,South,170,2.0,2.0,80,0.00,,,0.00,0.0,WeatherDisplay:10.37,2013-03-18 10:55:00,
2013-03-18 03:57:00,22.7,17.7,30.12,South,170,1.2,0.0,81,0.00,,,0.00,0.0,WeatherDisplay:10.37,2013-03-18 10:57:00,
2013-03-18 03:59:00,22.7,17.7,30.12,South,170,1.2,1.2,81,0.00,,,0.00,0.0,WeatherDisplay:10.37,2013-03-18 10:59:00,
2013-03-18 04:00:00,22.7,17.7,30.12,South,170,1.2,0.0,81,0.00,,,0.00,0.0,WeatherDisplay:10.37,2013-03-18 11:00:00,
2013-03-18 04:03:00,22.6,17.6,30.12,South,170,0.0,0.0,81,0.00,,,0.00,0.0,WeatherDisplay:10.37,2013-03-18 11:03:00,
2013-03-18 04:04:00,22.6,17.6,30.12,South,170,0.0,0.0,81,0.00,,,0.00,0.0,WeatherDisplay:10.37,2013-03-18 11:04:00,
2013-03-18 04:05:00,22.6,17.6,30.12,South,170,1.2,0.0,81,0.00,,,0.00,0.0,WeatherDisplay:10.37,2013-03-18 11:05:00,
2013-03-18 04:06:00,22.6,17.6,30.12,South,170,1.2,0.0,81,0.00,,,0.00,0.0,WeatherDisplay:10.37,2013-03-18 11:06:00,
2013-03-18 04:08:00,22.5,17.3,30.12,South,170,0.0,0.0,80,0.00,,,0.00,0.0,WeatherDisplay:10.37,2013-03-18 11:08:00,
2013-03-18 04:09:00,22.5,17.3,30.12,South,170,0.0,0.0,80,0.00,,,0.00,0.0,WeatherDisplay:10.37,2013-03-18 11:09:00,
2013-03-18 04:10:00,22.4,17.2,30.12,South,170,0.0,0.0,80,0.00,,,0.00,0.0,WeatherDisplay:10.37,2013-03-18 11:10:00,
2013-03-18 04:11:00,22.4,17.2,30.12,South,170,0.0,0.0,80,0.00,,,0.00,0.0,WeatherDisplay:10.37,2013-03-18 11:11:00,
2013-03-18 04:14:00,22.4,17.5,30.12,South,170,0.0,0.0,81,0.00,,,0.00,0.0,WeatherDisplay:10.37,2013-03-18 11:14:00,
2013-03-18 04:15:00,22.4,17.5,30.12,South,170,0.0,0.0,81,0.00,,,0.00,0.0,WeatherDisplay:10.37,2013-03-18 11:15:00,
2013-03-18 04:16:00,22.4,17.5,30.12,South,170,0.0,0.0,81,0.00,,,0.00,0.0,WeatherDisplay:10.37,2013-03-18 11:16:00,
2013-03-18 04:19:00,22.4,17.5,30.12,South,170,0.0,0.2,81,0.00,,,0.00,0.0,WeatherDisplay:10.37,2013-03-18 11:19:00,
2013-03-18 04:20:00,22.4,17.5,30.12,South,170,0.0,0.2,81,0.00,,,0.00,0.0,WeatherDisplay:10.37,2013-03-18 11:20:00,
2013-03-18 04:21:00,22.3,17.4,30.12,South,170,1.2,0.0,81,0.00,,,0.00,0.0,WeatherDisplay:10.37,2013-03-18 11:21:00,
2013-03-18 04:22:00,22.3,17.4,30.12,South,170,1.0,0.0,81,0.00,,,0.00,0.0,WeatherDisplay:10.37,2013-03-18 11:22:00,
2013-03-18 04:24:00,22.3,17.4,30.12,South,170,2.3,2.3,81,0.00,,,0.00,0.0,WeatherDisplay:10.37,2013-03-18 11:24:00,
2013-03-18 04:25:00,22.3,17.4,30.12,South,170,2.3,2.3,81,0.00,,,0.00,0.0,WeatherDisplay:10.37,2013-03-18 11:25:00,
2013-03-18 04:26:00,22.2,17.3,30.12,South,170,2.3,2.3,81,0.00,,,0.00,0.0,WeatherDisplay:10.37,2013-03-18 11:26:00,
2013-03-18 04:27:00,22.2,17.3,30.12,South,170,2.3,2.3,81,0.00,,,0.00,0.0,WeatherDisplay:10.37,2013-03-18 11:27:00,
2013-03-18 04:29:00,22.1,17.2,30.12,South,170,1.2,0.0,81,0.00,,,0.00,0.0,WeatherDisplay:10.37,2013-03-18 11:29:00,
2013-03-18 04:30:00,22.1,17.2,30.12,South,170,1.2,1.2,81,0.00,,,0.00,0.0,WeatherDisplay:10.37,2013-03-18 11:30:00,
2013-03-18 04:31:00,22.0,17.1,30.12,South,170,1.2,1.2,81,0.00,,,0.00,0.0,WeatherDisplay:10.37,2013-03-18 11:31:00,
2013-03-18 04:32:00,22.0,17.1,30.12,South,170,1.2,1.2,81,0.00,,,0.00,0.0,WeatherDisplay:10.37,2013-03-18 11:32:00,
2013-03-18 04:35:00,22.0,17.3,30.12,East,100,3.5,3.5,82,0.00,,,0.00,0.0,WeatherDisplay:10.37,2013-03-18 11:35:00,
2013-03-18 04:37:00,21.8,16.9,30.12,ESE,105,2.3,2.3,81,0.00,,,0.00,0.0,WeatherDisplay:10.37,2013-03-18 11:37:00,
2013-03-18 04:40:00,21.6,16.4,30.12,ESE,109,2.3,2.3,80,0.00,,,0.00,0.0,WeatherDisplay:10.37,2013-03-18 11:40:00,
2013-03-18 04:42:00,21.4,16.5,30.12,ESE,109,2.3,2.3,81,0.00,,,0.00,0.0,WeatherDisplay:10.37,2013-03-18 11:42:00,
2013-03-18 04:43:00,21.4,16.5,30.12,ESE,109,1.2,1.2,81,0.00,,,0.00,0.0,WeatherDisplay:10.37,2013-03-18 11:43:00,
2013-03-18 04:45:00,21.2,16.3,30.12,ESE,109,0.0,0.5,81,0.00,,,0.00,0.0,WeatherDisplay:10.37,2013-03-18 11:45:00,
2013-03-18 04:47:00,21.1,16.2,30.12,ESE,109,2.3,2.3,81,0.00,,,0.00,0.0,WeatherDisplay:10.37,2013-03-18 11:47:00,
2013-03-18 04:48:00,21.0,16.1,30.12,ESE,109,1.2,1.2,81,0.00,,,0.00,0.0,WeatherDisplay:10.37,2013-03-18 11:48:00,
2013-03-18 04:50:00,20.9,16.3,30.12,ESE,111,2.3,2.3,82,0.00,,,0.00,0.0,WeatherDisplay:10.37,2013-03-18 11:50:00,
2013-03-18 04:52:00,20.9,16.3,30.12,ESE,111,2.3,2.3,82,0.00,,,0.00,0.0,WeatherDisplay:10.37,2013-03-18 11:52:00,
2013-03-18 04:53:00,20.9,16.3,30.12,ESE,111,2.3,2.3,82,0.00,,,0.00,0.0,WeatherDisplay:10.37,2013-03-18 11:53:00,
2013-03-18 04:55:00,20.9,16.5,30.12,ESE,111,1.2,0.0,83,0.00,,,0.00,0.0,WeatherDisplay:10.37,2013-03-18 11:55:00,
2013-03-18 04:57:00,21.0,16.6,30.12,ESE,111,2.0,2.0,83,0.00,,,0.00,0.0,WeatherDisplay:10.37,2013-03-18 11:57:00,
2013-03-18 04:59:00,21.1,16.7,30.12,ESE,111,2.3,2.3,83,0.00,,,0.00,0.0,WeatherDisplay:10.37,2013-03-18 11:59:00,
2013-03-18 05:00:00,21.1,16.5,30.12,ESE,111,1.2,1.2,82,0.00,,,0.00,0.0,WeatherDisplay:10.37,2013-03-18 12:00:00,
2013-03-18 05:02:00,21.1,16.5,30.11,ESE,111,1.2,1.2,82,0.00,,,0.00,0.0,WeatherDisplay:10.37,2013-03-18 12:02:00,
2013-03-18 05:03:00,21.1,16.5,30.11,ESE,111,1.2,0.0,82,0.00,,,0.00,0.0,WeatherDisplay:10.37,2013-03-18 12:03:00,
2013-03-18 05:04:00,21.1,16.5,30.11,ESE,111,0.0,0.0,82,0.00,,,0.00,0.0,WeatherDisplay:10.37,2013-03-18 12:04:00,
2013-03-18 05:06:00,21.0,16.4,30.11,ESE,111,0.0,0.0,82,0.00,,,0.00,0.0,WeatherDisplay:10.37,2013-03-18 12:06:00,
2013-03-18 05:07:00,20.9,16.3,30.11,ESE,111,0.0,0.0,82,0.00,,,0.00,0.0,WeatherDisplay:10.37,2013-03-18 12:07:00,
2013-03-18 05:08:00,21.0,16.4,30.11,ESE,111,0.0,0.0,82,0.00,,,0.00,0.0,WeatherDisplay:10.37,2013-03-18 12:08:00,
2013-03-18 05:09:00,20.9,16.5,30.11,ESE,112,2.0,2.0,83,0.00,,,0.00,0.0,WeatherDisplay:10.37,2013-03-18 12:09:00,
2013-03-18 05:12:00,20.9,16.5,30.11,ESE,112,1.2,1.2,83,0.00,,,0.00,0.0,WeatherDisplay:10.37,2013-03-18 12:12:00,
2013-03-18 05:13:00,20.9,16.5,30.11,ESE,115,3.5,3.5,83,0.00,,,0.00,0.0,WeatherDisplay:10.37,2013-03-18 12:13:00,
2013-03-18 05:14:00,20.9,16.5,30.11,SE,125,3.5,3.5,83,0.00,,,0.00,0.0,WeatherDisplay:10.37,2013-03-18 12:14:00,
2013-03-18 05:17:00,21.1,16.7,30.12,SE,125,1.2,1.2,83,0.00,,,0.00,0.0,WeatherDisplay:10.37,2013-03-18 12:17:00,
2013-03-18 05:18:00,21.1,16.7,30.12,SE,125,1.2,0.0,83,0.00,,,0.00,0.0,WeatherDisplay:10.37,2013-03-18 12:18:00,
2013-03-18 05:19:00,21.1,16.7,30.12,SE,125,0.0,0.0,83,0.00,,,0.00,0.0,WeatherDisplay:10.37,2013-03-18 12:19:00,
2013-03-18 05:23:00,21.1,16.7,30.11,SE,125,0.0,0.0,83,0.00,,,0.00,0.0,WeatherDisplay:10.37,2013-03-18 12:23:00,
2013-03-18 05:24:00,21.1,16.7,30.11,SE,125,0.0,0.0,83,0.00,,,0.00,0.0,WeatherDisplay:10.37,2013-03-18 12:24:00,
2013-03-18 05:25:00,21.2,16.8,30.11,SE,125,0.0,0.0,83,0.00,,,0.00,0.0,WeatherDisplay:10.37,2013-03-18 12:25:00,
2013-03-18 05:28:00,21.3,16.9,30.12,SE,125,1.2,1.2,83,0.00,,,0.00,0.0,WeatherDisplay:10.37,2013-03-18 12:28:00,
2013-03-18 05:29:00,21.3,16.9,30.12,SE,125,1.2,1.2,83,0.00,,,0.00,0.0,WeatherDisplay:10.37,2013-03-18 12:29:00,
2013-03-18 05:30:00,21.3,16.9,30.12,SE,125,1.2,1.2,83,0.00,,,0.00,0.0,WeatherDisplay:10.37,2013-03-18 12:30:00,
2013-03-18 05:33:00,21.2,16.6,30.12,SE,125,1.2,0.0,82,0.00,,,0.00,0.0,WeatherDisplay:10.37,2013-03-18 12:33:00,
2013-03-18 05:34:00,21.2,16.6,30.12,SE,125,1.2,0.0,82,0.00,,,0.00,0.0,WeatherDisplay:10.37,2013-03-18 12:34:00,
2013-03-18 05:35:00,21.2,16.6,30.12,SE,125,0.0,0.0,82,0.00,,,0.00,0.0,WeatherDisplay:10.37,2013-03-18 12:35:00,
2013-03-18 05:38:00,21.1,16.7,30.12,SE,125,0.0,0.0,83,0.00,,,0.00,0.0,WeatherDisplay:10.37,2013-03-18 12:38:00,
2013-03-18 05:39:00,21.1,16.7,30.12,SE,125,0.0,0.0,83,0.00,,,0.00,0.0,WeatherDisplay:10.37,2013-03-18 12:39:00,
2013-03-18 05:40:00,21.1,16.7,30.12,SE,125,0.0,0.3,83,0.00,,,0.00,0.0,WeatherDisplay:10.37,2013-03-18 12:40:00,
2013-03-18 05:43:00,21.2,16.8,30.12,SE,125,0.0,0.2,83,0.00,,,0.00,0.0,WeatherDisplay:10.37,2013-03-18 12:43:00,
2013-03-18 05:45:00,21.2,16.8,30.12,SE,125,1.2,1.2,83,0.00,,,0.00,0.0,WeatherDisplay:10.37,2013-03-18 12:45:00,
2013-03-18 05:48:00,21.3,16.9,30.12,SE,125,1.2,1.2,83,0.00,,,0.00,0.0,WeatherDisplay:10.37,2013-03-18 12:48:00,
2013-03-18 05:50:00,21.3,16.9,30.13,SE,125,1.2,1.2,83,0.00,,,0.00,0.0,WeatherDisplay:10.37,2013-03-18 12:50:00,
2013-03-18 05:52:00,21.3,16.9,30.13,SE,125,1.2,1.2,83,0.00,,,0.00,0.0,WeatherDisplay:10.37,2013-03-18 12:52:00,
2013-03-18 05:54:00,21.2,16.6,30.13,SE,125,1.2,1.2,82,0.00,,,0.00,0.0,WeatherDisplay:10.37,2013-03-18 12:54:00,
2013-03-18 05:55:00,21.1,16.5,30.13,SE,125,1.2,1.2,82,0.00,,,0.00,0.0,WeatherDisplay:10.37,2013-03-18 12:55:00,
2013-03-18 05:58:00,21.0,16.4,30.13,SE,125,2.3,2.3,82,0.00,,,0.00,0.0,WeatherDisplay:10.37,2013-03-18 12:58:00,
2013-03-18 06:00:00,20.9,16.3,30.13,SE,125,2.3,0.0,82,0.00,,,0.00,0.0,WeatherDisplay:10.37,2013-03-18 13:00:00,
2013-03-18 06:03:00,20.8,16.2,30.13,SSE,151,2.3,2.3,82,0.00,,,0.00,0.0,WeatherDisplay:10.37,2013-03-18 13:03:00,
2013-03-18 06:05:00,20.7,16.1,30.13,SSE,155,3.5,3.5,82,0.00,,,0.00,0.0,WeatherDisplay:10.37,2013-03-18 13:05:00,
2013-03-18 06:08:00,20.6,16.0,30.13,SSE,158,1.2,0.0,82,0.00,,,0.00,0.0,WeatherDisplay:10.37,2013-03-18 13:08:00,
2013-03-18 06:10:00,20.6,16.0,30.13,SSE,156,3.5,3.5,82,0.00,,,0.00,0.0,WeatherDisplay:10.37,2013-03-18 13:10:00,
2013-03-18 06:11:00,20.5,15.9,30.13,SSE,156,3.5,3.5,82,0.00,,,0.00,0.0,WeatherDisplay:10.37,2013-03-18 13:11:00,
2013-03-18 06:14:00,20.3,16.0,30.14,SSE,159,3.5,3.5,83,0.00,,,0.00,0.0,WeatherDisplay:10.37,2013-03-18 13:14:00,
2013-03-18 06:15:00,20.3,16.0,30.13,SSE,159,2.3,2.3,83,0.00,,,0.00,0.0,WeatherDisplay:10.37,2013-03-18 13:15:00,
2013-03-18 06:16:00,20.3,16.0,30.13,SSE,159,2.3,2.3,83,0.00,,,0.00,0.0,WeatherDisplay:10.37,2013-03-18 13:16:00,
2013-03-18 06:19:00,20.1,15.8,30.14,SSE,159,0.0,0.0,83,0.00,,,0.00,0.0,WeatherDisplay:10.37,2013-03-18 13:19:00,
2013-03-18 06:20:00,20.1,15.8,30.13,SSE,159,0.0,0.0,83,0.00,,,0.00,0.0,WeatherDisplay:10.37,2013-03-18 13:20:00,
2013-03-18 06:21:00,20.1,15.8,30.13,SSE,159,1.2,1.2,83,0.00,,,0.00,0.0,WeatherDisplay:10.37,2013-03-18 13:21:00,
2013-03-18 06:24:00,20.2,15.9,30.14,SSE,159,0.0,0.0,83,0.00,,,0.00,0.0,WeatherDisplay:10.37,2013-03-18 13:24:00,
2013-03-18 06:25:00,20.2,15.9,30.14,SSE,159,0.0,0.0,83,0.00,,,0.00,0.0,WeatherDisplay:10.37,2013-03-18 13:25:00,
2013-03-18 06:26:00,20.2,15.9,30.14,SSE,159,2.3,2.3,83,0.00,,,0.00,0.0,WeatherDisplay:10.37,2013-03-18 13:26:00,
2013-03-18 06:29:00,20.1,15.8,30.14,SSE,159,0.0,0.0,83,0.00,,,0.00,0.0,WeatherDisplay:10.37,2013-03-18 13:29:00,
2013-03-18 06:32:00,20.1,15.8,30.14,SSE,159,0.0,0.0,83,0.00,,,0.00,0.0,WeatherDisplay:10.37,2013-03-18 13:32:00,
2013-03-18 06:33:00,20.1,15.8,30.14,SSE,152,0.0,0.0,83,0.00,,,0.00,0.0,WeatherDisplay:10.37,2013-03-18 13:33:00,
2013-03-18 06:34:00,20.1,15.8,30.14,SE,145,2.3,2.3,83,0.00,,,0.00,0.0,WeatherDisplay:10.37,2013-03-18 13:34:00,
2013-03-18 06:37:00,19.9,15.6,30.14,SE,145,2.3,2.3,83,0.00,,,0.00,0.0,WeatherDisplay:10.37,2013-03-18 13:37:00,
2013-03-18 06:38:00,19.9,15.6,30.14,SE,145,1.2,0.0,83,0.00,,,0.00,0.0,WeatherDisplay:10.37,2013-03-18 13:38:00,
2013-03-18 06:40:00,19.8,15.5,30.14,SE,145,0.0,0.0,83,0.00,,,0.00,0.0,WeatherDisplay:10.37,2013-03-18 13:40:00,
2013-03-18 06:42:00,19.7,15.4,30.15,SE,145,1.0,0.0,83,0.00,,,0.00,0.0,WeatherDisplay:10.37,2013-03-18 13:42:00,
2013-03-18 06:43:00,19.7,15.4,30.15,SE,145,1.2,1.2,83,0.00,,,0.00,0.0,WeatherDisplay:10.37,2013-03-18 13:43:00,
2013-03-18 06:45:00,19.7,15.4,30.14,SE,145,1.2,1.2,83,0.00,,,0.00,0.0,WeatherDisplay:10.37,2013-03-18 13:45:00,
2013-03-18 06:48:00,19.7,15.6,30.14,SE,145,1.2,0.0,84,0.00,,,0.00,0.0,WeatherDisplay:10.37,2013-03-18 13:48:00,
2013-03-18 06:49:00,19.8,15.7,30.14,SE,145,1.0,1.0,84,0.00,,,0.00,0.0,WeatherDisplay:10.37,2013-03-18 13:49:00,
2013-03-18 06:50:00,19.7,15.6,30.14,SE,145,0.0,0.2,84,0.00,,,0.00,0.0,WeatherDisplay:10.37,2013-03-18 13:50:00,
2013-03-18 06:53:00,19.7,15.6,30.14,SE,145,1.2,1.2,84,0.00,,,0.00,0.0,WeatherDisplay:10.37,2013-03-18 13:53:00,
2013-03-18 06:54:00,19.7,15.6,30.14,SE,145,0.0,0.0,84,0.00,,,0.00,0.0,WeatherDisplay:10.37,2013-03-18 13:54:00,
2013-03-18 06:55:00,19.7,15.6,30.14,SE,145,0.0,0.0,84,0.00,,,0.00,0.0,WeatherDisplay:10.37,2013-03-18 13:55:00,
2013-03-18 06:58:00,19.7,15.6,30.14,SE,145,1.2,0.0,84,0.00,,,0.00,0.0,WeatherDisplay:10.37,2013-03-18 13:58:00,
2013-03-18 06:59:00,19.7,15.6,30.14,SE,145,1.2,0.0,84,0.00,,,0.00,0.0,WeatherDisplay:10.37,2013-03-18 13:59:00,
2013-03-18 07:00:00,19.7,15.6,30.14,SE,145,0.0,0.1,84,0.00,,,0.00,0.0,WeatherDisplay:10.37,2013-03-18 14:00:00,
2013-03-18 07:03:00,19.6,15.6,30.14,SE,145,1.2,1.2,84,0.00,,,0.00,0.0,WeatherDisplay:10.37,2013-03-18 14:03:00,
2013-03-18 07:04:00,19.7,15.6,30.14,SE,145,1.2,1.2,84,0.00,,,0.00,0.0,WeatherDisplay:10.37,2013-03-18 14:04:00,
2013-03-18 07:05:00,19.7,15.6,30.14,SE,145,2.3,2.3,84,0.00,,,0.00,0.0,WeatherDisplay:10.37,2013-03-18 14:05:00,
2013-03-18 07:08:00,19.7,15.6,30.14,SE,145,1.2,1.2,84,0.00,,,0.00,6.0,WeatherDisplay:10.37,2013-03-18 14:08:00,
2013-03-18 07:09:00,19.7,15.6,30.14,SE,145,1.2,1.2,84,0.00,,,0.00,6.0,WeatherDisplay:10.37,2013-03-18 14:09:00,
2013-03-18 07:10:00,19.7,15.6,30.14,SE,145,0.0,0.0,84,0.00,,,0.00,6.0,WeatherDisplay:10.37,2013-03-18 14:10:00,
2013-03-18 07:14:00,19.8,15.7,30.14,SSE,161,3.5,3.5,84,0.00,,,0.00,10.8,WeatherDisplay:10.37,2013-03-18 14:14:00,
2013-03-18 07:15:00,19.8,15.7,30.14,SSE,161,2.3,2.3,84,0.00,CLR,,0.00,13.2,WeatherDisplay:10.37,2013-03-18 14:15:00,
2013-03-18 07:16:00,19.8,16.0,30.15,SSE,163,3.5,3.5,85,0.00,CLR,,0.00,13.2,WeatherDisplay:10.37,2013-03-18 14:16:00,
2013-03-18 07:19:00,19.8,16.0,30.15,SSE,161,2.3,2.3,85,0.00,CLR,,0.00,14.4,WeatherDisplay:10.37,2013-03-18 14:19:00,
2013-03-18 07:21:00,19.9,16.1,30.15,SSE,147,3.5,3.5,85,0.00,CLR,,0.00,16.8,WeatherDisplay:10.37,2013-03-18 14:21:00,
2013-03-18 07:22:00,19.9,16.1,30.15,SSE,147,3.5,3.5,85,0.00,CLR,,0.00,19.2,WeatherDisplay:10.37,2013-03-18 14:22:00,
2013-03-18 07:25:00,19.9,15.8,30.15,SSE,158,3.5,3.5,84,0.00,CLR,,0.00,21.6,WeatherDisplay:10.37,2013-03-18 14:25:00,
2013-03-18 07:27:00,19.9,15.8,30.15,SSE,156,2.3,2.3,84,0.00,CLR,,0.00,22.8,WeatherDisplay:10.37,2013-03-18 14:27:00,
2013-03-18 07:30:00,19.9,16.1,30.15,SSE,153,0.0,0.0,85,0.00,FEW,,0.00,25.2,WeatherDisplay:10.37,2013-03-18 14:30:00,
2013-03-18 07:31:00,20.0,16.2,30.15,SSE,153,2.3,2.3,85,0.00,FEW,,0.00,27.6,WeatherDisplay:10.37,2013-03-18 14:31:00,
2013-03-18 07:32:00,20.0,16.2,30.15,SSE,153,2.3,2.3,85,0.00,FEW,,0.00,27.6,WeatherDisplay:10.37,2013-03-18 14:32:00,
2013-03-18 07:35:00,20.2,16.4,30.15,SSE,153,2.3,2.3,85,0.00,SCT,,0.00,30.0,WeatherDisplay:10.37,2013-03-18 14:35:00,
2013-03-18 07:36:00,20.3,16.5,30.15,SSE,153,2.3,2.3,85,0.00,SCT,,0.00,31.2,WeatherDisplay:10.37,2013-03-18 14:36:00,
2013-03-18 07:37:00,20.3,16.5,30.15,SSE,153,1.2,1.2,85,0.00,SCT,,0.00,31.2,WeatherDisplay:10.37,2013-03-18 14:37:00,
2013-03-18 07:38:00,20.3,16.5,30.15,SSE,153,1.2,0.0,85,0.00,SCT,,0.00,31.2,WeatherDisplay:10.37,2013-03-18 14:38:00,
2013-03-18 07:40:00,20.3,16.2,30.15,SSE,153,1.2,0.0,84,0.00,SCT,,0.00,31.2,WeatherDisplay:10.37,2013-03-18 14:40:00,
2013-03-18 07:42:00,20.3,16.2,30.16,SSE,153,1.2,1.2,84,0.00,SCT,,0.00,31.2,WeatherDisplay:10.37,2013-03-18 14:42:00,
2013-03-18 07:43:00,20.3,16.2,30.15,SSE,153,1.2,1.2,84,0.00,SCT,,0.00,31.2,WeatherDisplay:10.37,2013-03-18 14:43:00,
2013-03-18 07:45:00,20.4,16.3,30.16,SSE,164,3.0,3.0,84,0.00,SCT,,0.00,33.6,WeatherDisplay:10.37,2013-03-18 14:45:00,
2013-03-18 07:47:00,20.4,16.1,30.16,SSE,167,4.0,4.0,83,0.00,BKN,,0.00,36.0,WeatherDisplay:10.37,2013-03-18 14:47:00,
2013-03-18 07:48:00,20.3,16.0,30.16,SSE,167,3.5,3.5,83,0.00,SCT,,0.00,36.0,WeatherDisplay:10.37,2013-03-18 14:48:00,
2013-03-18 07:50:00,20.3,16.0,30.16,SSE,164,2.3,2.3,83,0.00,SCT,,0.00,46.8,WeatherDisplay:10.37,2013-03-18 14:50:00,
2013-03-18 07:52:00,20.3,16.0,30.16,South,169,3.0,3.0,83,0.00,SCT,,0.00,48.0,WeatherDisplay:10.37,2013-03-18 14:52:00,
2013-03-18 07:54:00,20.3,16.0,30.16,South,170,3.5,3.5,83,0.00,SCT,,0.00,50.4,WeatherDisplay:10.37,2013-03-18 14:54:00,
2013-03-18 07:56:00,20.3,16.0,30.16,South,171,3.5,3.5,83,0.00,SCT,,0.00,48.0,WeatherDisplay:10.37,2013-03-18 14:56:00,
2013-03-18 07:57:00,20.4,16.1,30.16,South,171,3.5,3.5,83,0.00,SCT,,0.00,56.4,WeatherDisplay:10.37,2013-03-18 14:57:00,
2013-03-18 07:58:00,20.4,16.1,30.16,South,171,3.5,3.5,83,0.00,SCT,,0.00,56.4,WeatherDisplay:10.37,2013-03-18 14:58:00,
2013-03-18 07:59:00,20.5,16.4,30.15,South,171,3.5,3.5,84,0.00,SCT,,0.00,67.2,WeatherDisplay:10.37,2013-03-18 14:59:00,
2013-03-18 08:01:00,20.5,16.2,30.15,South,171,2.0,2.0,83,0.00,SCT,,0.00,72.0,WeatherDisplay:10.37,2013-03-18 15:01:00,
2013-03-18 08:02:00,20.7,16.4,30.16,South,171,2.3,2.3,83,0.00,FEW,,0.00,91.2,WeatherDisplay:10.37,2013-03-18 15:02:00,
2013-03-18 08:03:00,20.7,16.4,30.16,South,171,2.3,2.3,83,0.00,FEW,,0.00,91.2,WeatherDisplay:10.37,2013-03-18 15:03:00,
2013-03-18 08:05:00,20.9,16.5,30.15,South,171,3.5,3.5,83,0.00,CLR,,0.00,111.6,WeatherDisplay:10.37,2013-03-18 15:05:00,
2013-03-18 08:06:00,21.1,17.0,30.15,South,171,2.0,2.0,84,0.00,CLR,,0.00,139.2,WeatherDisplay:10.37,2013-03-18 15:06:00,
2013-03-18 08:08:00,21.2,17.1,30.15,South,171,3.5,3.5,84,0.00,CLR,,0.00,117.6,WeatherDisplay:10.37,2013-03-18 15:08:00,
2013-03-18 08:10:00,21.5,17.1,30.15,South,171,1.2,1.2,83,0.00,CLR,,0.00,122.4,WeatherDisplay:10.37,2013-03-18 15:10:00,
2013-03-18 08:11:00,21.8,17.4,30.16,South,171,2.3,2.3,83,0.00,CLR,,0.00,153.6,WeatherDisplay:10.37,2013-03-18 15:11:00,
2013-03-18 08:13:00,22.0,17.6,30.16,South,171,2.3,2.3,83,0.00,CLR,,0.00,153.6,WeatherDisplay:10.37,2013-03-18 15:13:00,
2013-03-18 08:15:00,22.2,17.5,30.16,South,169,3.5,3.5,82,0.00,CLR,,0.00,139.2,WeatherDisplay:10.37,2013-03-18 15:15:00,
2013-03-18 08:17:00,22.5,17.8,30.16,South,173,3.5,3.5,82,0.00,CLR,,0.00,166.8,WeatherDisplay:10.37,2013-03-18 15:17:00,
2013-03-18 08:18:00,22.5,17.8,30.16,South,173,2.3,2.3,82,0.00,CLR,,0.00,169.2,WeatherDisplay:10.37,2013-03-18 15:18:00,
2013-03-18 08:20:00,22.7,18.0,30.16,South,173,3.5,3.5,82,0.00,CLR,,0.00,139.2,WeatherDisplay:10.37,2013-03-18 15:20:00,
2013-03-18 08:23:00,22.9,17.9,30.16,South,173,3.0,3.0,81,0.00,CLR,,0.00,186.0,WeatherDisplay:10.37,2013-03-18 15:23:00,
2013-03-18 08:24:00,22.9,17.9,30.16,South,175,3.5,3.5,81,0.00,CLR,,0.00,187.2,WeatherDisplay:10.37,2013-03-18 15:24:00,
2013-03-18 08:25:00,23.1,18.1,30.16,South,175,2.3,2.3,81,0.00,CLR,,0.00,200.4,WeatherDisplay:10.37,2013-03-18 15:25:00,
2013-03-18 08:28:00,23.5,18.8,30.16,SSE,168,2.3,2.3,82,0.00,CLR,,0.00,214.8,WeatherDisplay:10.37,2013-03-18 15:28:00,
2013-03-18 08:29:00,23.5,18.8,30.16,SSE,168,3.0,3.0,82,0.00,CLR,,0.00,214.8,WeatherDisplay:10.37,2013-03-18 15:29:00,
2013-03-18 08:32:00,23.9,18.9,30.16,SSE,167,2.3,2.3,81,0.00,CLR,,0.00,198.0,WeatherDisplay:10.37,2013-03-18 15:32:00,
2013-03-18 08:34:00,24.1,19.1,30.16,SE,145,3.5,3.5,81,0.00,CLR,,0.00,186.0,WeatherDisplay:10.37,2013-03-18 15:34:00,
2013-03-18 08:37:00,24.5,19.5,30.16,SSE,159,3.5,3.5,81,0.00,CLR,,0.00,250.8,WeatherDisplay:10.37,2013-03-18 15:37:00,
2013-03-18 08:39:00,24.7,19.4,30.16,SSE,159,2.3,2.3,80,0.00,CLR,,0.00,247.2,WeatherDisplay:10.37,2013-03-18 15:39:00,
2013-03-18 08:42:00,25.2,19.9,30.16,SSE,158,1.2,1.2,80,0.00,CLR,,0.00,248.4,WeatherDisplay:10.37,2013-03-18 15:42:00,
2013-03-18 08:44:00,25.6,20.3,30.16,SSE,159,0.0,0.0,80,0.00,CLR,,0.00,248.4,WeatherDisplay:10.37,2013-03-18 15:44:00,
2013-03-18 08:47:00,26.2,20.9,30.16,SSE,159,1.0,1.0,80,0.00,CLR,,0.00,261.6,WeatherDisplay:10.37,2013-03-18 15:47:00,
2013-03-18 08:49:00,26.6,21.3,30.16,SSE,158,3.0,3.0,80,0.00,CLR,,0.00,261.6,WeatherDisplay:10.37,2013-03-18 15:49:00,
2013-03-18 08:50:00,26.8,21.5,30.16,SSE,159,3.5,3.5,80,0.00,CLR,,0.00,261.6,WeatherDisplay:10.37,2013-03-18 15:50:00,
2013-03-18 08:52:00,27.4,21.7,30.16,SSE,159,2.3,2.3,79,0.00,CLR,,0.00,280.8,WeatherDisplay:10.37,2013-03-18 15:52:00,
2013-03-18 08:54:00,27.9,22.2,30.17,SSE,159,3.5,3.5,79,0.00,CLR,,0.00,297.6,WeatherDisplay:10.37,2013-03-18 15:54:00,
2013-03-18 08:55:00,28.0,22.3,30.16,SSE,159,2.3,2.3,79,0.00,CLR,,0.00,297.6,WeatherDisplay:10.37,2013-03-18 15:55:00,
2013-03-18 08:58:00,28.7,22.7,30.16,SSE,158,2.3,2.3,78,0.00,CLR,,0.00,309.6,WeatherDisplay:10.37,2013-03-18 15:58:00,
2013-03-18 08:59:00,29.1,22.8,30.16,SSE,158,2.3,2.3,77,0.00,CLR,,0.00,312.0,WeatherDisplay:10.37,2013-03-18 15:59:00,
2013-03-18 09:00:00,29.2,22.9,30.16,SSE,158,2.3,2.3,77,0.00,CLR,,0.00,314.4,WeatherDisplay:10.37,2013-03-18 16:00:00,
2013-03-18 09:03:00,29.6,23.0,30.16,SSE,159,1.2,1.2,76,0.00,CLR,,0.00,326.4,WeatherDisplay:10.37,2013-03-18 16:03:00,
2013-03-18 09:05:00,29.8,23.2,30.16,SSE,159,0.0,0.0,76,0.00,CLR,,0.00,334.8,WeatherDisplay:10.37,2013-03-18 16:05:00,
2013-03-18 09:08:00,30.8,23.8,30.16,SSE,153,3.5,3.5,75,0.00,CLR,,0.00,348.0,WeatherDisplay:10.37,2013-03-18 16:08:00,
2013-03-18 09:10:00,31.1,23.8,30.16,SSE,153,1.2,1.2,74,0.00,CLR,,0.00,358.8,WeatherDisplay:10.37,2013-03-18 16:10:00,
2013-03-18 09:13:00,31.7,24.0,30.16,SSE,165,3.5,3.5,73,0.00,CLR,,0.00,373.2,WeatherDisplay:10.37,2013-03-18 16:13:00,
2013-03-18 09:15:00,32.1,24.1,30.16,SSE,148,4.6,4.6,72,0.00,CLR,,0.00,379.2,WeatherDisplay:10.37,2013-03-18 16:15:00,
2013-03-18 09:16:00,32.2,24.2,30.16,SSE,150,4.6,4.6,72,0.00,CLR,,0.00,379.2,WeatherDisplay:10.37,2013-03-18 16:16:00,
2013-03-18 09:19:00,32.7,24.0,30.17,SSE,148,3.5,3.5,70,0.00,CLR,,0.00,387.6,WeatherDisplay:10.37,2013-03-18 16:19:00,
2013-03-18 09:21:00,33.0,23.9,30.16,SSE,161,3.5,3.5,69,0.00,CLR,,0.00,390.0,WeatherDisplay:10.37,2013-03-18 16:21:00,
2013-03-18 09:24:00,33.4,24.0,30.16,SE,128,3.5,3.5,68,0.00,CLR,,0.00,406.8,WeatherDisplay:10.37,2013-03-18 16:24:00,
2013-03-18 09:26:00,33.7,24.3,30.16,SE,142,3.0,3.0,68,0.00,CLR,,0.00,403.2,WeatherDisplay:10.37,2013-03-18 16:26:00,
2013-03-18 09:27:00,33.8,24.4,30.16,SSE,153,4.6,4.6,68,0.00,CLR,,0.00,403.2,WeatherDisplay:10.37,2013-03-18 16:27:00,
2013-03-18 09:29:00,34.2,24.4,30.16,SSE,159,5.8,5.8,67,0.00,CLR,,0.00,405.6,WeatherDisplay:10.37,2013-03-18 16:29:00,
2013-03-18 09:31:00,34.4,24.6,30.17,SE,146,4.6,4.6,67,0.00,CLR,,0.00,409.2,WeatherDisplay:10.37,2013-03-18 16:31:00,
2013-03-18 09:32:00,34.4,24.6,30.16,SE,144,5.0,5.0,67,0.00,CLR,,0.00,403.2,WeatherDisplay:10.37,2013-03-18 16:32:00,
2013-03-18 09:35:00,34.7,24.5,30.16,ESE,109,8.1,8.1,66,0.00,CLR,,0.00,406.8,WeatherDisplay:10.37,2013-03-18 16:35:00,
2013-03-18 09:37:00,34.8,24.2,30.16,SSE,148,6.9,6.9,65,0.00,CLR,,0.00,414.0,WeatherDisplay:10.37,2013-03-18 16:37:00,
2013-03-18 09:40:00,35.0,24.4,30.16,ESE,115,9.2,9.2,65,0.00,CLR,,0.00,406.8,WeatherDisplay:10.37,2013-03-18 16:40:00,
2013-03-18 09:42:00,35.1,24.1,30.16,SE,136,8.1,8.1,64,0.00,CLR,,0.00,409.2,WeatherDisplay:10.37,2013-03-18 16:42:00,
2013-03-18 09:46:00,35.0,24.0,30.16,SE,141,5.8,5.8,64,0.00,CLR,,0.00,434.4,WeatherDisplay:10.37,2013-03-18 16:46:00,
2013-03-18 09:47:00,35.1,24.1,30.16,South,180,5.8,5.8,64,0.00,CLR,,0.00,447.6,WeatherDisplay:10.37,2013-03-18 16:47:00,
2013-03-18 09:48:00,35.1,24.1,30.16,SE,131,6.0,6.0,64,0.00,CLR,,0.00,447.6,WeatherDisplay:10.37,2013-03-18 16:48:00,
2013-03-18 09:52:00,35.4,24.4,30.16,SSE,158,3.5,3.5,64,0.00,CLR,,0.00,487.2,WeatherDisplay:10.37,2013-03-18 16:52:00,
2013-03-18 09:53:00,35.5,24.1,30.16,South,171,4.6,4.6,63,0.00,CLR,,0.00,492.0,WeatherDisplay:10.37,2013-03-18 16:53:00,
2013-03-18 09:57:00,35.9,24.1,30.17,SSE,154,5.8,5.8,62,0.00,CLR,,0.00,512.4,WeatherDisplay:10.37,2013-03-18 16:57:00,
2013-03-18 09:58:00,36.0,24.2,30.17,SSE,158,5.8,5.8,62,0.00,CLR,,0.00,514.8,WeatherDisplay:10.37,2013-03-18 16:58:00,
2013-03-18 10:02:00,36.3,24.5,30.17,SE,128,6.0,6.0,62,0.00,CLR,,0.00,535.2,WeatherDisplay:10.37,2013-03-18 17:02:00,
2013-03-18 10:03:00,36.5,24.7,30.17,ESE,113,7.0,7.0,62,0.00,CLR,,0.00,542.4,WeatherDisplay:10.37,2013-03-18 17:03:00,
2013-03-18 10:07:00,36.6,24.0,30.17,SSE,153,5.8,5.8,60,0.00,CLR,,0.00,562.8,WeatherDisplay:10.37,2013-03-18 17:07:00,
2013-03-18 10:08:00,36.6,24.0,30.17,ESE,105,4.0,4.0,60,0.00,CLR,,0.00,567.6,WeatherDisplay:10.37,2013-03-18 17:08:00,
2013-03-18 10:09:00,36.6,24.0,30.17,ESE,120,6.9,6.9,60,0.00,CLR,,0.00,571.2,WeatherDisplay:10.37,2013-03-18 17:09:00,
2013-03-18 10:12:00,36.9,24.3,30.17,SE,141,3.5,3.5,60,0.00,CLR,,0.00,576.0,WeatherDisplay:10.37,2013-03-18 17:12:00,
2013-03-18 10:13:00,37.0,24.4,30.17,SE,144,4.0,4.0,60,0.00,CLR,,0.00,579.6,WeatherDisplay:10.37,2013-03-18 17:13:00,
2013-03-18 10:14:00,37.1,24.5,30.17,ESE,114,5.0,5.0,60,0.00,CLR,,0.00,584.4,WeatherDisplay:10.37,2013-03-18 17:14:00,
2013-03-18 10:17:00,37.7,24.6,30.17,ESE,117,6.9,6.9,59,0.00,CLR,,0.00,590.4,WeatherDisplay:10.37,2013-03-18 17:17:00,
2013-03-18 10:18:00,37.8,24.7,30.16,SSE,153,4.6,4.6,59,0.00,CLR,,0.00,595.2,WeatherDisplay:10.37,2013-03-18 17:18:00,
2013-03-18 10:19:00,37.8,24.3,30.16,SE,146,4.6,4.6,58,0.00,CLR,,0.00,595.2,WeatherDisplay:10.37,2013-03-18 17:19:00,
2013-03-18 10:20:00,37.9,24.4,30.16,SSE,150,3.5,3.5,58,0.00,CLR,,0.00,598.8,WeatherDisplay:10.37,2013-03-18 17:20:00,
2013-03-18 10:22:00,38.3,24.8,30.16,ESE,117,8.1,8.1,58,0.00,CLR,,0.00,607.2,WeatherDisplay:10.37,2013-03-18 17:22:00,
2013-03-18 10:23:00,38.6,25.1,30.16,ESE,113,8.1,8.1,58,0.00,CLR,,0.00,612.0,WeatherDisplay:10.37,2013-03-18 17:23:00,
2013-03-18 10:24:00,38.7,24.8,30.16,ESE,111,4.6,4.6,57,0.00,CLR,,0.00,612.0,WeatherDisplay:10.37,2013-03-18 17:24:00,
2013-03-18 10:25:00,39.0,24.6,30.16,ESE,114,3.5,3.5,56,0.00,CLR,,0.00,612.0,WeatherDisplay:10.37,2013-03-18 17:25:00,
2013-03-18 10:28:00,39.7,25.3,30.16,ESE,113,8.1,8.1,56,0.00,CLR,,0.00,626.4,WeatherDisplay:10.37,2013-03-18 17:28:00,
2013-03-18 10:29:00,39.9,25.0,30.16,SE,134,4.6,4.6,55,0.00,CLR,,0.00,631.2,WeatherDisplay:10.37,2013-03-18 17:29:00,
2013-03-18 10:30:00,39.7,24.4,30.16,SSE,150,6.9,6.9,54,0.00,CLR,,0.00,631.2,WeatherDisplay:10.37,2013-03-18 17:30:00,
2013-03-18 10:33:00,39.4,24.6,30.16,SE,130,3.0,3.0,55,0.00,CLR,,0.00,643.2,WeatherDisplay:10.37,2013-03-18 17:33:00,
2013-03-18 10:34:00,39.5,24.7,30.16,South,179,3.0,3.0,55,0.00,CLR,,0.00,648.0,WeatherDisplay:10.37,2013-03-18 17:34:00,
2013-03-18 10:35:00,39.3,24.0,30.16,South,169,3.5,3.5,54,0.00,CLR,,0.00,649.2,WeatherDisplay:10.37,2013-03-18 17:35:00,
2013-03-18 10:38:00,39.2,24.4,30.16,South,177,3.5,3.5,55,0.00,CLR,,0.00,660.0,WeatherDisplay:10.37,2013-03-18 17:38:00,
2013-03-18 10:39:00,39.3,24.5,30.16,ESE,118,3.5,3.5,55,0.00,CLR,,0.00,662.4,WeatherDisplay:10.37,2013-03-18 17:39:00,
2013-03-18 10:40:00,39.5,24.7,30.16,ESE,117,3.5,3.5,55,0.00,CLR,,0.00,662.4,WeatherDisplay:10.37,2013-03-18 17:40:00,
2013-03-18 10:43:00,40.9,24.6,30.16,East,91,10.4,10.4,52,0.00,CLR,,0.00,673.2,WeatherDisplay:10.37,2013-03-18 17:43:00,
2013-03-18 10:44:00,41.0,24.7,30.16,East,88,6.9,6.9,52,0.00,CLR,,0.00,675.6,WeatherDisplay:10.37,2013-03-18 17:44:00,
2013-03-18 10:45:00,41.3,25.0,30.16,East,94,5.8,5.8,52,0.00,CLR,,0.00,679.2,WeatherDisplay:10.37,2013-03-18 17:45:00,
2013-03-18 10:48:00,41.7,24.4,30.16,East,97,5.8,5.8,50,0.00,CLR,,0.00,690.0,WeatherDisplay:10.37,2013-03-18 17:48:00,
2013-03-18 10:49:00,41.8,25.0,30.16,ESE,121,5.8,5.8,51,0.00,CLR,,0.00,700.8,WeatherDisplay:10.37,2013-03-18 17:49:00,
2013-03-18 10:51:00,41.9,24.6,30.16,ESE,121,3.5,3.5,50,0.00,CLR,,0.00,690.0,WeatherDisplay:10.37,2013-03-18 17:51:00,
2013-03-18 10:54:00,41.1,24.3,30.16,SE,141,5.8,5.8,51,0.00,CLR,,0.00,696.0,WeatherDisplay:10.37,2013-03-18 17:54:00,
2013-03-18 10:55:00,40.9,24.1,30.16,SE,145,8.1,8.1,51,0.00,CLR,,0.00,698.4,WeatherDisplay:10.37,2013-03-18 17:55:00,
2013-03-18 10:56:00,40.6,23.9,30.16,SE,126,9.2,9.2,51,0.00,CLR,,0.00,702.0,WeatherDisplay:10.37,2013-03-18 17:56:00,
2013-03-18 10:59:00,40.5,24.2,30.16,SSE,157,3.5,3.5,52,0.00,CLR,,0.00,709.2,WeatherDisplay:10.37,2013-03-18 17:59:00,
2013-03-18 11:00:00,40.8,24.5,30.15,ESE,119,6.9,6.9,52,0.00,CLR,,0.00,710.4,WeatherDisplay:10.37,2013-03-18 18:00:00,
2013-03-18 11:01:00,41.3,24.0,30.15,SSE,159,5.8,5.8,50,0.00,CLR,,0.00,715.2,WeatherDisplay:10.37,2013-03-18 18:01:00,
2013-03-18 11:02:00,41.2,23.9,30.15,SSE,159,5.8,5.8,50,0.00,CLR,,0.00,717.6,WeatherDisplay:10.37,2013-03-18 18:02:00,
2013-03-18 11:04:00,40.9,24.1,30.15,SSE,167,2.3,2.3,51,0.00,CLR,,0.00,721.2,WeatherDisplay:10.37,2013-03-18 18:04:00,
2013-03-18 11:05:00,40.8,24.1,30.15,ESE,110,1.2,1.2,51,0.00,CLR,,0.00,721.2,WeatherDisplay:10.37,2013-03-18 18:05:00,
2013-03-18 11:06:00,41.5,24.7,30.15,ESE,110,2.3,2.3,51,0.00,CLR,,0.00,723.6,WeatherDisplay:10.37,2013-03-18 18:06:00,
2013-03-18 11:07:00,41.5,24.2,30.15,ESE,110,1.2,1.2,50,0.00,CLR,,0.00,726.0,WeatherDisplay:10.37,2013-03-18 18:07:00,
2013-03-18 11:09:00,42.3,24.5,30.15,ESE,110,2.3,0.0,49,0.00,CLR,,0.00,734.4,WeatherDisplay:10.37,2013-03-18 18:09:00,
2013-03-18 11:10:00,42.3,24.5,30.15,SSW,205,5.0,5.0,49,0.00,CLR,,0.00,734.4,WeatherDisplay:10.37,2013-03-18 18:10:00,
2013-03-18 11:11:00,42.4,25.1,30.15,ESE,119,8.1,8.1,50,0.00,CLR,,0.00,735.6,WeatherDisplay:10.37,2013-03-18 18:11:00,
2013-03-18 11:12:00,42.8,24.9,30.15,ESE,119,8.1,8.1,49,0.00,CLR,,0.00,738.0,WeatherDisplay:10.37,2013-03-18 18:12:00,
2013-03-18 11:14:00,43.5,25.1,30.15,ESE,109,5.8,5.8,48,0.00,CLR,,0.00,746.4,WeatherDisplay:10.37,2013-03-18 18:14:00,
2013-03-18 11:16:00,44.0,25.5,30.15,SE,140,3.5,3.5,48,0.00,CLR,,0.00,746.4,WeatherDisplay:10.37,2013-03-18 18:16:00,
2013-03-18 11:17:00,43.6,24.2,30.15,SSE,155,2.3,2.3,46,0.00,CLR,,0.00,751.2,WeatherDisplay:10.37,2013-03-18 18:17:00,
2013-03-18 11:20:00,43.4,25.0,30.15,ESE,113,2.3,2.3,48,0.00,CLR,,0.00,757.2,WeatherDisplay:10.37,2013-03-18 18:20:00,
2013-03-18 11:21:00,44.0,25.5,30.15,ESE,113,1.2,1.2,48,0.00,CLR,,0.00,759.6,WeatherDisplay:10.37,2013-03-18 18:21:00,
2013-03-18 11:22:00,44.5,25.5,30.15,ESE,103,3.5,3.5,47,0.00,CLR,,0.00,762.0,WeatherDisplay:10.37,2013-03-18 18:22:00,
2013-03-18 11:25:00,44.7,24.6,30.15,East,98,4.6,4.6,45,0.00,CLR,,0.00,770.4,WeatherDisplay:10.37,2013-03-18 18:25:00,
2013-03-18 11:26:00,44.5,24.5,30.15,SSW,205,5.0,5.0,45,0.00,CLR,,0.00,771.6,WeatherDisplay:10.37,2013-03-18 18:26:00,
2013-03-18 11:27:00,43.6,23.6,30.15,SE,142,4.6,4.6,45,0.00,CLR,,0.00,763.2,WeatherDisplay:10.37,2013-03-18 18:27:00,
2013-03-18 11:28:00,43.5,23.5,30.15,South,186,4.6,4.6,45,0.00,CLR,,0.00,771.6,WeatherDisplay:10.37,2013-03-18 18:28:00,
2013-03-18 11:30:00,43.3,23.9,30.15,South,184,4.6,4.6,46,0.00,CLR,,0.00,778.8,WeatherDisplay:10.37,2013-03-18 18:30:00,
2013-03-18 11:31:00,43.1,23.2,30.15,SSE,167,3.5,3.5,45,0.00,CLR,,0.00,778.8,WeatherDisplay:10.37,2013-03-18 18:31:00,
2013-03-18 11:33:00,43.8,24.3,30.15,ESE,111,4.0,4.0,46,0.00,CLR,,0.00,782.4,WeatherDisplay:10.37,2013-03-18 18:33:00,
2013-03-18 11:35:00,45.4,24.7,30.15,ENE,63,3.5,3.5,44,0.00,CLR,,0.00,780.0,WeatherDisplay:10.37,2013-03-18 18:35:00,
2013-03-18 11:36:00,45.5,24.3,30.15,ENE,63,3.5,3.5,43,0.00,CLR,,0.00,780.0,WeatherDisplay:10.37,2013-03-18 18:36:00,
2013-03-18 11:38:00,45.2,23.4,30.14,NE,54,3.5,3.5,42,0.00,CLR,,0.00,790.8,WeatherDisplay:10.37,2013-03-18 18:38:00,
2013-03-18 11:40:00,45.3,23.5,30.15,ESE,107,2.3,2.3,42,0.00,CLR,,0.00,796.8,WeatherDisplay:10.37,2013-03-18 18:40:00,
2013-03-18 11:41:00,45.4,23.6,30.15,ESE,107,2.3,2.3,42,0.00,CLR,,0.00,796.8,WeatherDisplay:10.37,2013-03-18 18:41:00,
2013-03-18 11:43:00,45.5,23.7,30.15,SSE,148,1.2,1.2,42,0.00,CLR,,0.00,801.6,WeatherDisplay:10.37,2013-03-18 18:43:00,
2013-03-18 11:44:00,45.5,23.7,30.15,SSE,150,1.2,1.2,42,0.00,CLR,,0.00,801.6,WeatherDisplay:10.37,2013-03-18 18:44:00,
2013-03-18 11:45:00,45.2,23.4,30.15,SE,140,3.5,3.5,42,0.00,CLR,,0.00,810.0,WeatherDisplay:10.37,2013-03-18 18:45:00,
2013-03-18 11:47:00,45.6,23.8,30.15,South,180,5.8,5.8,42,0.00,CLR,,0.00,805.2,WeatherDisplay:10.37,2013-03-18 18:47:00,
2013-03-18 11:48:00,45.4,23.0,30.15,South,178,5.8,5.8,41,0.00,CLR,,0.00,810.0,WeatherDisplay:10.37,2013-03-18 18:48:00,
2013-03-18 11:49:00,45.2,22.9,30.15,SSE,160,5.8,5.8,41,0.00,CLR,,0.00,814.8,WeatherDisplay:10.37,2013-03-18 18:49:00,
2013-03-18 11:50:00,44.8,23.1,30.15,SSW,198,5.8,5.8,42,0.00,CLR,,0.00,816.0,WeatherDisplay:10.37,2013-03-18 18:50:00,
2013-03-18 11:52:00,44.7,23.5,30.15,South,189,3.5,3.5,43,0.00,CLR,,0.00,816.0,WeatherDisplay:10.37,2013-03-18 18:52:00,
2013-03-18 11:53:00,44.8,23.6,30.15,SSW,205,3.5,3.5,43,0.00,CLR,,0.00,816.0,WeatherDisplay:10.37,2013-03-18 18:53:00,
2013-03-18 11:55:00,45.3,22.4,30.15,West,280,4.6,4.6,40,0.00,CLR,,0.00,823.2,WeatherDisplay:10.37,2013-03-18 18:55:00,
2013-03-18 11:56:00,45.3,22.4,30.15,West,266,5.0,5.0,40,0.00,CLR,,0.00,823.2,WeatherDisplay:10.37,2013-03-18 18:56:00,
2013-03-18 11:58:00,45.1,22.2,30.15,WSW,250,4.6,4.6,40,0.00,CLR,,0.00,826.8,WeatherDisplay:10.37,2013-03-18 18:58:00,
2013-03-18 12:00:00,44.7,20.6,30.15,SW,230,10.4,10.4,38,0.00,CLR,,0.00,832.8,WeatherDisplay:10.37,2013-03-18 19:00:00,
2013-03-18 12:02:00,44.6,21.1,30.15,SW,233,5.8,5.9,39,0.00,CLR,,0.00,835.2,WeatherDisplay:10.37,2013-03-18 19:02:00,
2013-03-18 12:03:00,44.6,21.1,30.15,SW,232,8.1,8.1,39,0.00,CLR,,0.00,832.8,WeatherDisplay:10.37,2013-03-18 19:03:00,
2013-03-18 12:06:00,45.3,22.4,30.15,West,274,10.4,10.4,40,0.00,CLR,,0.00,837.6,WeatherDisplay:10.37,2013-03-18 19:06:00,
2013-03-18 12:07:00,45.5,21.9,30.15,NW,312,10.4,10.4,39,0.00,CLR,,0.00,837.6,WeatherDisplay:10.37,2013-03-18 19:07:00,
2013-03-18 12:08:00,45.9,21.7,30.15,West,268,8.1,8.1,38,0.00,CLR,,0.00,841.2,WeatherDisplay:10.37,2013-03-18 19:08:00,
2013-03-18 12:12:00,45.5,21.9,30.14,West,273,7.0,7.0,39,0.00,CLR,,0.00,848.4,WeatherDisplay:10.37,2013-03-18 19:12:00,
2013-03-18 12:13:00,46.1,21.9,30.14,West,273,6.9,6.9,38,0.00,CLR,,0.00,849.6,WeatherDisplay:10.37,2013-03-18 19:13:00,
2013-03-18 12:14:00,46.1,21.9,30.14,West,271,6.9,6.9,38,0.00,CLR,,0.00,849.6,WeatherDisplay:10.37,2013-03-18 19:14:00,
2013-03-18 12:17:00,46.3,21.4,30.14,West,259,6.9,6.9,37,0.00,CLR,,0.00,858.0,WeatherDisplay:10.37,2013-03-18 19:17:00,
2013-03-18 12:18:00,46.4,21.5,30.14,West,261,6.0,6.0,37,0.00,CLR,,0.00,856.8,WeatherDisplay:10.37,2013-03-18 19:18:00,
2013-03-18 12:19:00,46.7,21.8,30.14,WNW,296,5.8,5.8,37,0.00,CLR,,0.00,854.4,WeatherDisplay:10.37,2013-03-18 19:19:00,
2013-03-18 12:23:00,46.7,21.8,30.13,WNW,288,3.5,3.5,37,0.00,CLR,,0.00,858.0,WeatherDisplay:10.37,2013-03-18 19:23:00,
2013-03-18 12:24:00,46.8,21.9,30.13,WNW,287,3.5,3.5,37,0.00,CLR,,0.00,862.8,WeatherDisplay:10.37,2013-03-18 19:24:00,
2013-03-18 12:28:00,47.9,22.2,30.13,West,266,6.9,6.9,36,0.00,CLR,,0.00,860.4,WeatherDisplay:10.37,2013-03-18 19:28:00,
2013-03-18 12:29:00,47.9,21.5,30.13,WNW,292,8.0,8.0,35,0.00,CLR,,0.00,860.4,WeatherDisplay:10.37,2013-03-18 19:29:00,
2013-03-18 12:30:00,47.9,21.5,30.13,WNW,292,10.4,10.4,35,0.00,CLR,,0.00,862.8,WeatherDisplay:10.37,2013-03-18 19:30:00,
2013-03-18 12:33:00,47.3,20.3,30.13,WNW,283,10.4,10.4,34,0.00,CLR,,0.00,865.2,WeatherDisplay:10.37,2013-03-18 19:33:00,
2013-03-18 12:35:00,47.2,20.9,30.13,West,276,10.4,10.4,35,0.00,CLR,,0.00,865.2,WeatherDisplay:10.37,2013-03-18 19:35:00,
2013-03-18 12:38:00,47.8,21.4,30.13,NW,317,8.0,8.0,35,0.00,CLR,,0.00,868.8,WeatherDisplay:10.37,2013-03-18 19:38:00,
2013-03-18 12:40:00,47.6,20.6,30.13,WNW,291,11.5,11.5,34,0.00,CLR,,0.00,866.4,WeatherDisplay:10.37,2013-03-18 19:40:00,
2013-03-18 12:43:00,47.4,21.1,30.13,NW,321,6.0,6.0,35,0.00,CLR,,0.00,873.6,WeatherDisplay:10.37,2013-03-18 19:43:00,
2013-03-18 12:45:00,47.5,21.2,30.12,WNW,289,5.8,5.8,35,0.00,CLR,,0.00,874.8,WeatherDisplay:10.37,2013-03-18 19:45:00,
2013-03-18 12:46:00,47.6,21.3,30.12,NW,315,3.5,3.5,35,0.00,CLR,,0.00,873.6,WeatherDisplay:10.37,2013-03-18 19:46:00,
2013-03-18 12:48:00,47.8,21.4,30.12,WNW,288,8.1,8.1,35,0.00,CLR,,0.00,874.8,WeatherDisplay:10.37,2013-03-18 19:48:00,
2013-03-18 12:50:00,47.7,21.3,30.12,SW,235,10.4,10.4,35,0.00,CLR,,0.00,877.2,WeatherDisplay:10.37,2013-03-18 19:50:00,
2013-03-18 12:52:00,48.0,21.6,30.12,SW,217,10.4,10.4,35,0.00,CLR,,0.00,874.8,WeatherDisplay:10.37,2013-03-18 19:52:00,
2013-03-18 12:53:00,48.3,21.9,30.12,South,186,3.5,3.5,35,0.00,CLR,,0.00,879.6,WeatherDisplay:10.37,2013-03-18 19:53:00,
2013-03-18 12:54:00,48.7,21.5,30.12,SW,214,2.3,2.3,34,0.00,CLR,,0.00,874.8,WeatherDisplay:10.37,2013-03-18 19:54:00,
2013-03-18 12:55:00,49.0,21.8,30.12,WSW,254,3.5,3.5,34,0.00,CLR,,0.00,877.2,WeatherDisplay:10.37,2013-03-18 19:55:00,
2013-03-18 12:57:00,49.3,22.1,30.12,WNW,295,4.6,4.6,34,0.00,CLR,,0.00,884.4,WeatherDisplay:10.37,2013-03-18 19:57:00,
2013-03-18 12:59:00,49.4,20.0,30.12,WNW,296,10.4,10.4,31,0.00,CLR,,0.00,882.0,WeatherDisplay:10.37,2013-03-18 19:59:00,
2013-03-18 13:01:00,49.1,19.7,30.12,West,266,8.1,8.1,31,0.00,CLR,,0.00,882.0,WeatherDisplay:10.37,2013-03-18 20:01:00,
2013-03-18 13:02:00,48.9,19.5,30.12,West,280,5.0,5.0,31,0.00,CLR,,0.00,879.6,WeatherDisplay:10.37,2013-03-18 20:02:00,
2013-03-18 13:04:00,49.2,20.6,30.12,WSW,254,4.6,4.6,32,0.00,CLR,,0.00,882.0,WeatherDisplay:10.37,2013-03-18 20:04:00,
2013-03-18 13:06:00,49.8,21.8,30.12,WNW,286,8.0,8.0,33,0.00,CLR,,0.00,882.0,WeatherDisplay:10.37,2013-03-18 20:06:00,
2013-03-18 13:08:00,49.8,21.1,30.12,West,269,9.2,9.2,32,0.00,CLR,,0.00,884.4,WeatherDisplay:10.37,2013-03-18 20:08:00,
2013-03-18 13:09:00,49.6,20.9,30.12,West,269,4.0,4.0,32,0.00,CLR,,0.00,884.4,WeatherDisplay:10.37,2013-03-18 20:09:00,
2013-03-18 13:12:00,50.0,22.0,30.12,WNW,292,8.1,8.1,33,0.00,CLR,,0.00,882.0,WeatherDisplay:10.37,2013-03-18 20:12:00,
2013-03-18 13:13:00,49.9,20.4,30.12,WNW,295,9.2,9.2,31,0.00,CLR,,0.00,879.6,WeatherDisplay:10.37,2013-03-18 20:13:00,
2013-03-18 13:14:00,49.7,21.0,30.12,WNW,301,4.6,4.6,32,0.00,CLR,,0.00,879.6,WeatherDisplay:10.37,2013-03-18 20:14:00,
2013-03-18 13:17:00,49.2,20.6,30.12,WNW,291,1.2,1.2,32,0.00,CLR,,0.00,879.6,WeatherDisplay:10.37,2013-03-18 20:17:00,
2013-03-18 13:18:00,49.0,21.1,30.12,South,189,2.0,2.0,33,0.00,CLR,,0.00,879.6,WeatherDisplay:10.37,2013-03-18 20:18:00,
2013-03-18 13:19:00,49.0,21.1,30.12,South,188,3.5,3.5,33,0.00,CLR,,0.00,879.6,WeatherDisplay:10.37,2013-03-18 20:19:00,
2013-03-18 13:20:00,49.2,21.3,30.12,WNW,296,2.3,2.3,33,0.00,CLR,,0.00,879.6,WeatherDisplay:10.37,2013-03-18 20:20:00,
2013-03-18 13:23:00,49.8,20.3,30.12,West,276,8.1,8.1,31,0.00,CLR,,0.00,879.6,WeatherDisplay:10.37,2013-03-18 20:23:00,
2013-03-18 13:24:00,49.9,20.4,30.12,West,263,8.1,8.1,31,0.00,CLR,,0.00,882.0,WeatherDisplay:10.37,2013-03-18 20:24:00,
2013-03-18 13:25:00,49.5,20.1,30.12,WNW,286,4.6,4.6,31,0.00,CLR,,0.00,884.4,WeatherDisplay:10.37,2013-03-18 20:25:00,
2013-03-18 13:28:00,49.9,21.2,30.11,WNW,284,9.2,9.2,32,0.00,CLR,,0.00,884.4,WeatherDisplay:10.37,2013-03-18 20:28:00,
2013-03-18 13:29:00,50.3,20.0,30.11,NW,305,9.2,9.2,30,0.00,CLR,,0.00,882.0,WeatherDisplay:10.37,2013-03-18 20:29:00,
2013-03-18 13:33:00,50.8,20.4,30.11,WNW,302,3.5,3.5,30,0.00,CLR,,0.00,882.0,WeatherDisplay:10.37,2013-03-18 20:33:00,
2013-03-18 13:34:00,50.8,20.4,30.11,WNW,302,3.5,3.5,30,0.00,CLR,,0.00,882.0,WeatherDisplay:10.37,2013-03-18 20:34:00,
2013-03-18 13:37:00,50.9,20.5,30.11,West,278,4.6,4.6,30,0.00,CLR,,0.00,879.6,WeatherDisplay:10.37,2013-03-18 20:37:00,
2013-03-18 13:39:00,50.6,19.5,30.11,WNW,294,9.0,9.0,29,0.00,CLR,,0.00,877.2,WeatherDisplay:10.37,2013-03-18 20:39:00,
2013-03-18 13:40:00,50.7,20.4,30.11,West,272,11.5,11.5,30,0.00,CLR,,0.00,877.2,WeatherDisplay:10.37,2013-03-18 20:40:00,
2013-03-18 13:42:00,50.7,19.6,30.11,West,269,6.9,6.9,29,0.00,CLR,,0.00,877.2,WeatherDisplay:10.37,2013-03-18 20:42:00,
2013-03-18 13:44:00,50.6,20.3,30.11,NW,320,6.9,6.9,30,0.00,CLR,,0.00,874.8,WeatherDisplay:10.37,2013-03-18 20:44:00,
2013-03-18 13:45:00,50.2,19.9,30.11,North,355,5.8,5.8,30,0.00,CLR,,0.00,877.2,WeatherDisplay:10.37,2013-03-18 20:45:00,
2013-03-18 13:47:00,50.1,19.8,30.11,NW,319,6.9,6.9,30,0.00,CLR,,0.00,873.6,WeatherDisplay:10.37,2013-03-18 20:47:00,
2013-03-18 13:49:00,49.7,19.5,30.11,North,355,4.0,4.0,30,0.00,CLR,,0.00,874.8,WeatherDisplay:10.37,2013-03-18 20:49:00,
2013-03-18 13:52:00,49.7,19.5,30.11,North,5,5.8,5.8,30,0.00,CLR,,0.00,877.2,WeatherDisplay:10.37,2013-03-18 20:52:00,
2013-03-18 13:53:00,50.1,19.8,30.11,NNW,345,4.6,4.6,30,0.00,CLR,,0.00,873.6,WeatherDisplay:10.37,2013-03-18 20:53:00,
2013-03-18 13:54:00,50.1,19.0,30.11,NW,306,4.6,4.6,29,0.00,CLR,,0.00,873.6,WeatherDisplay:10.37,2013-03-18 20:54:00,
2013-03-18 13:57:00,51.1,19.1,30.10,NNW,348,2.3,2.3,28,0.00,CLR,,0.00,868.8,WeatherDisplay:10.37,2013-03-18 20:57:00,
2013-03-18 13:58:00,51.3,19.3,30.10,NNW,348,2.3,2.3,28,0.00,CLR,,0.00,868.8,WeatherDisplay:10.37,2013-03-18 20:58:00,
2013-03-18 13:59:00,51.8,19.7,30.10,WNW,288,3.0,3.0,28,0.00,CLR,,0.00,873.6,WeatherDisplay:10.37,2013-03-18 20:59:00,
2013-03-18 14:00:00,51.9,19.8,30.10,WNW,290,2.0,2.7,28,0.00,CLR,,0.00,873.6,WeatherDisplay:10.37,2013-03-18 21:00:00,
2013-03-18 14:03:00,53.0,19.0,30.11,West,281,5.8,5.8,26,0.00,CLR,,0.00,868.8,WeatherDisplay:10.37,2013-03-18 21:03:00,
2013-03-18 14:04:00,52.5,17.6,30.11,WNW,298,5.8,5.8,25,0.00,CLR,,0.00,868.8,WeatherDisplay:10.37,2013-03-18 21:04:00,
2013-03-18 14:05:00,52.4,17.6,30.11,WNW,300,3.5,3.5,25,0.00,CLR,,0.00,868.8,WeatherDisplay:10.37,2013-03-18 21:05:00,
2013-03-18 14:08:00,51.9,18.0,30.11,West,265,6.9,6.9,26,0.00,CLR,,0.00,866.4,WeatherDisplay:10.37,2013-03-18 21:08:00,
2013-03-18 14:09:00,51.9,17.1,30.11,NW,307,4.0,4.0,25,0.00,CLR,,0.00,868.8,WeatherDisplay:10.37,2013-03-18 21:09:00,
2013-03-18 14:10:00,51.9,17.1,30.11,West,269,6.0,6.0,25,0.00,CLR,,0.00,868.8,WeatherDisplay:10.37,2013-03-18 21:10:00,
2013-03-18 14:13:00,51.5,16.8,30.10,WNW,287,8.1,8.1,25,0.00,CLR,,0.00,865.2,WeatherDisplay:10.37,2013-03-18 21:13:00,
2013-03-18 14:14:00,51.6,16.9,30.10,WNW,286,8.1,8.1,25,0.00,CLR,,0.00,840.0,WeatherDisplay:10.37,2013-03-18 21:14:00,
2013-03-18 14:15:00,51.7,17.0,30.10,NNW,336,4.6,4.6,25,0.00,CLR,,0.00,771.6,WeatherDisplay:10.37,2013-03-18 21:15:00,
2013-03-18 14:19:00,51.1,17.4,30.10,NW,322,6.9,6.9,26,0.00,CLR,,0.00,734.4,WeatherDisplay:10.37,2013-03-18 21:19:00,
2013-03-18 14:20:00,51.2,17.4,30.10,WNW,287,7.0,7.0,26,0.00,CLR,,0.00,784.8,WeatherDisplay:10.37,2013-03-18 21:20:00,
2013-03-18 14:24:00,52.0,17.2,30.10,WNW,290,10.4,10.4,25,0.00,CLR,,0.00,626.4,WeatherDisplay:10.37,2013-03-18 21:24:00,
2013-03-18 14:25:00,52.5,16.7,30.11,WNW,287,3.5,3.5,24,0.00,CLR,,0.00,654.0,WeatherDisplay:10.37,2013-03-18 21:25:00,
2013-03-18 14:26:00,52.6,16.8,30.11,WNW,287,3.5,3.5,24,0.00,CLR,,0.00,654.0,WeatherDisplay:10.37,2013-03-18 21:26:00,
2013-03-18 14:30:00,52.1,15.4,30.10,WNW,296,6.9,6.9,23,0.00,CLR,,0.00,673.2,WeatherDisplay:10.37,2013-03-18 21:30:00,
2013-03-18 14:31:00,51.2,14.6,30.10,NW,311,4.6,4.6,23,0.00,CLR,,0.00,565.2,WeatherDisplay:10.37,2013-03-18 21:31:00,
2013-03-18 14:35:00,50.7,16.1,30.10,NW,311,3.5,3.5,25,0.00,CLR,,0.00,588.0,WeatherDisplay:10.37,2013-03-18 21:35:00,
2013-03-18 14:36:00,51.3,17.5,30.09,NW,311,2.3,2.3,26,0.00,CLR,,0.00,778.8,WeatherDisplay:10.37,2013-03-18 21:36:00,
2013-03-18 14:40:00,53.0,17.1,30.10,NW,306,4.0,4.0,24,0.00,CLR,,0.00,790.8,WeatherDisplay:10.37,2013-03-18 21:40:00,
2013-03-18 14:41:00,53.0,15.1,30.10,WNW,296,8.1,8.1,22,0.00,CLR,,0.00,907.2,WeatherDisplay:10.37,2013-03-18 21:41:00,
2013-03-18 14:42:00,52.8,14.9,30.10,West,267,6.9,6.9,22,0.00,CLR,,0.00,907.2,WeatherDisplay:10.37,2013-03-18 21:42:00,
2013-03-18 14:45:00,52.4,14.6,30.10,SW,228,8.1,8.1,22,0.00,CLR,,0.00,771.6,WeatherDisplay:10.37,2013-03-18 21:45:00,
2013-03-18 14:46:00,52.4,14.6,30.10,SW,223,8.1,8.1,22,0.00,CLR,,0.00,771.6,WeatherDisplay:10.37,2013-03-18 21:46:00,
2013-03-18 14:47:00,52.1,14.4,30.10,SW,224,4.6,4.6,22,0.00,CLR,,0.00,751.2,WeatherDisplay:10.37,2013-03-18 21:47:00,
2013-03-18 14:50:00,51.5,14.9,30.09,NW,319,5.8,5.8,23,0.00,CLR,,0.00,823.2,WeatherDisplay:10.37,2013-03-18 21:50:00,
2013-03-18 14:51:00,51.5,14.9,30.09,NW,319,5.8,5.8,23,0.00,CLR,,0.00,823.2,WeatherDisplay:10.37,2013-03-18 21:51:00,
2013-03-18 14:52:00,51.8,15.1,30.09,NW,322,1.2,1.2,23,0.00,CLR,,0.00,576.0,WeatherDisplay:10.37,2013-03-18 21:52:00,
2013-03-18 14:53:00,52.3,15.5,30.09,NNW,327,1.2,1.2,23,0.00,CLR,,0.00,576.0,WeatherDisplay:10.37,2013-03-18 21:53:00,
2013-03-18 14:55:00,52.7,12.7,30.09,NW,304,4.6,4.6,20,0.00,CLR,,0.00,860.4,WeatherDisplay:10.37,2013-03-18 21:55:00,
2013-03-18 14:56:00,52.7,12.7,30.09,NW,304,4.6,4.6,20,0.00,CLR,,0.00,788.4,WeatherDisplay:10.37,2013-03-18 21:56:00,
2013-03-18 14:57:00,52.7,13.8,30.09,NW,304,1.2,0.0,21,0.00,CLR,,0.00,702.0,WeatherDisplay:10.37,2013-03-18 21:57:00,
2013-03-18 14:58:00,53.2,14.2,30.09,WNW,300,1.2,1.2,21,0.00,CLR,,0.00,702.0,WeatherDisplay:10.37,2013-03-18 21:58:00,
2013-03-18 15:00:00,53.9,13.7,30.09,North,355,3.5,3.5,20,0.00,CLR,,0.00,702.0,WeatherDisplay:10.37,2013-03-18 22:00:00,
2013-03-18 15:01:00,54.0,13.8,30.09,North,355,3.5,3.5,20,0.00,CLR,,0.00,702.0,WeatherDisplay:10.37,2013-03-18 22:01:00,
2013-03-18 15:03:00,54.3,12.8,30.09,West,271,8.1,8.1,19,0.00,CLR,,0.00,843.6,WeatherDisplay:10.37,2013-03-18 22:03:00,
2013-03-18 15:06:00,53.6,12.3,30.09,NW,306,6.9,6.9,19,0.00,CLR,,0.00,835.2,WeatherDisplay:10.37,2013-03-18 22:06:00,
2013-03-18 15:08:00,52.6,11.4,30.09,WNW,291,5.8,5.8,19,0.00,CLR,,0.00,831.6,WeatherDisplay:10.37,2013-03-18 22:08:00,
2013-03-18 15:11:00,53.5,12.2,30.09,WNW,294,3.5,3.5,19,0.00,CLR,,0.00,753.6,WeatherDisplay:10.37,2013-03-18 22:11:00,
2013-03-18 15:12:00,53.5,12.2,30.09,WNW,294,3.5,3.5,19,0.00,CLR,,0.00,753.6,WeatherDisplay:10.37,2013-03-18 22:12:00,
2013-03-18 15:13:00,53.8,12.4,30.09,WNW,286,6.9,6.9,19,0.00,CLR,,0.00,784.8,WeatherDisplay:10.37,2013-03-18 22:13:00,
2013-03-18 15:16:00,52.8,10.4,30.08,WNW,303,6.9,6.9,18,0.00,CLR,,0.00,787.2,WeatherDisplay:10.37,2013-03-18 22:16:00,
2013-03-18 15:17:00,52.8,10.4,30.08,WNW,295,4.6,4.6,18,0.00,CLR,,0.00,787.2,WeatherDisplay:10.37,2013-03-18 22:17:00,
2013-03-18 15:18:00,52.8,10.4,30.08,NNW,336,4.6,4.6,18,0.00,CLR,,0.00,732.0,WeatherDisplay:10.37,2013-03-18 22:18:00,
2013-03-18 15:22:00,53.3,10.8,30.08,NNW,332,4.6,4.6,18,0.00,CLR,,0.00,604.8,WeatherDisplay:10.37,2013-03-18 22:22:00,
2013-03-18 15:23:00,53.4,10.9,30.08,NNW,331,5.0,5.0,18,0.00,CLR,,0.00,390.0,WeatherDisplay:10.37,2013-03-18 22:23:00,
2013-03-18 15:24:00,53.3,10.8,30.08,NW,316,4.6,4.6,18,0.00,CLR,,0.00,390.0,WeatherDisplay:10.37,2013-03-18 22:24:00,
2013-03-18 15:27:00,52.2,9.9,30.08,NW,319,6.9,6.9,18,0.00,CLR,,0.00,573.6,WeatherDisplay:10.37,2013-03-18 22:27:00,
2013-03-18 15:28:00,52.2,9.9,30.08,WNW,288,6.9,6.9,18,0.00,CLR,,0.00,604.8,WeatherDisplay:10.37,2013-03-18 22:28:00,
2013-03-18 15:29:00,52.2,8.6,30.08,WNW,288,6.9,6.9,17,0.00,CLR,,0.00,604.8,WeatherDisplay:10.37,2013-03-18 22:29:00,
2013-03-18 15:32:00,52.1,9.8,30.08,West,279,5.0,5.0,18,0.00,CLR,,0.00,361.2,WeatherDisplay:10.37,2013-03-18 22:32:00,
2013-03-18 15:34:00,51.8,8.3,30.08,West,273,4.6,4.6,17,0.00,FEW,,0.00,361.2,WeatherDisplay:10.37,2013-03-18 22:34:00,
2013-03-18 15:37:00,52.3,10.0,30.08,West,273,1.2,0.0,18,0.00,CLR,,0.00,784.8,WeatherDisplay:10.37,2013-03-18 22:37:00,
2013-03-18 15:39:00,55.2,9.7,30.08,West,273,1.2,1.2,16,0.00,CLR,,0.00,742.8,WeatherDisplay:10.37,2013-03-18 22:39:00,
2013-03-18 15:42:00,55.7,10.1,30.08,West,271,2.3,2.3,16,0.00,CLR,,0.00,670.8,WeatherDisplay:10.37,2013-03-18 22:42:00,
2013-03-18 15:44:00,56.4,9.2,30.08,West,271,1.2,1.2,15,0.00,CLR,,0.00,676.8,WeatherDisplay:10.37,2013-03-18 22:44:00,
2013-03-18 15:45:00,56.9,9.6,30.08,West,271,1.2,1.2,15,0.00,CLR,,0.00,579.6,WeatherDisplay:10.37,2013-03-18 22:45:00,
2013-03-18 15:47:00,56.4,7.7,30.08,West,271,3.0,3.0,14,0.00,CLR,,0.00,465.6,WeatherDisplay:10.37,2013-03-18 22:47:00,
2013-03-18 15:48:00,55.7,8.7,30.08,West,271,3.5,3.5,15,0.00,CLR,,0.00,535.2,WeatherDisplay:10.37,2013-03-18 22:48:00,
2013-03-18 15:50:00,54.9,9.5,30.08,WNW,292,6.0,6.0,16,0.00,CLR,,0.00,548.4,WeatherDisplay:10.37,2013-03-18 22:50:00,
2013-03-18 15:52:00,53.7,9.8,30.08,West,277,6.9,6.9,17,0.00,CLR,,0.00,430.8,WeatherDisplay:10.37,2013-03-18 22:52:00,
2013-03-18 15:53:00,53.6,9.8,30.08,West,271,6.9,6.9,17,0.00,CLR,,0.00,430.8,WeatherDisplay:10.37,2013-03-18 22:53:00,
2013-03-18 15:55:00,52.9,9.2,30.08,WNW,287,6.9,6.9,17,0.00,CLR,,0.00,430.8,WeatherDisplay:10.37,2013-03-18 22:55:00,
2013-03-18 15:56:00,52.6,8.9,30.08,WNW,287,6.9,6.9,17,0.00,CLR,,0.00,662.4,WeatherDisplay:10.37,2013-03-18 22:56:00,
2013-03-18 15:57:00,52.5,10.1,30.08,West,275,5.8,5.8,18,0.00,CLR,,0.00,666.0,WeatherDisplay:10.37,2013-03-18 22:57:00,
2013-03-18 15:58:00,52.6,10.2,30.08,WSW,251,4.6,4.6,18,0.00,CLR,,0.00,666.0,WeatherDisplay:10.37,2013-03-18 22:58:00,
2013-03-18 16:00:00,52.3,11.2,30.08,West,268,5.8,5.8,19,0.00,CLR,,0.00,704.4,WeatherDisplay:10.37,2013-03-18 23:00:00,
2013-03-18 16:01:00,52.6,11.4,30.08,West,277,4.6,4.6,19,0.00,CLR,,0.00,715.2,WeatherDisplay:10.37,2013-03-18 23:01:00,
2013-03-18 16:03:00,53.4,12.1,30.08,West,279,5.8,5.8,19,0.00,CLR,,0.00,637.2,WeatherDisplay:10.37,2013-03-18 23:03:00,
2013-03-18 16:05:00,52.6,10.2,30.08,SSW,212,4.6,4.6,18,0.00,CLR,,0.00,559.2,WeatherDisplay:10.37,2013-03-18 23:05:00,
2013-03-18 16:06:00,52.6,11.4,30.08,SSW,212,4.6,4.6,19,0.00,CLR,,0.00,559.2,WeatherDisplay:10.37,2013-03-18 23:06:00,
2013-03-18 16:08:00,53.1,11.9,30.08,SW,228,1.2,1.2,19,0.00,CLR,,0.00,609.6,WeatherDisplay:10.37,2013-03-18 23:08:00,
2013-03-18 16:09:00,53.5,12.2,30.08,SW,228,2.0,2.0,19,0.00,CLR,,0.00,598.8,WeatherDisplay:10.37,2013-03-18 23:09:00,
2013-03-18 16:10:00,53.7,11.1,30.08,SW,228,2.3,2.3,18,0.00,CLR,,0.00,448.8,WeatherDisplay:10.37,2013-03-18 23:10:00,
2013-03-18 16:11:00,53.7,11.1,30.08,South,180,3.5,3.5,18,0.00,CLR,,0.00,484.8,WeatherDisplay:10.37,2013-03-18 23:11:00,
2013-03-18 16:13:00,54.6,11.9,30.08,North,360,3.5,3.5,18,0.00,CLR,,0.00,447.6,WeatherDisplay:10.37,2013-03-18 23:13:00,
2013-03-18 16:14:00,54.6,11.9,30.08,North,360,3.5,3.5,18,0.00,CLR,,0.00,447.6,WeatherDisplay:10.37,2013-03-18 23:14:00,
2013-03-18 16:15:00,54.6,10.6,30.08,NNE,22,3.5,3.5,17,0.00,CLR,,0.00,436.8,WeatherDisplay:10.37,2013-03-18 23:15:00,
2013-03-18 16:17:00,54.5,10.5,30.08,WNW,301,4.0,4.0,17,0.00,CLR,,0.00,409.2,WeatherDisplay:10.37,2013-03-18 23:17:00,
2013-03-18 16:19:00,54.1,11.5,30.08,WNW,297,3.5,3.5,18,0.00,CLR,,0.00,356.4,WeatherDisplay:10.37,2013-03-18 23:19:00,
2013-03-18 16:22:00,54.1,12.7,30.08,North,360,2.3,2.3,19,0.00,CLR,,0.00,379.2,WeatherDisplay:10.37,2013-03-18 23:22:00,
2013-03-18 16:24:00,54.2,10.3,30.08,WNW,293,5.8,5.8,17,0.00,CLR,,0.00,430.8,WeatherDisplay:10.37,2013-03-18 23:24:00,
2013-03-18 16:27:00,53.2,9.4,30.08,NNW,332,4.6,4.6,17,0.00,CLR,,0.00,457.2,WeatherDisplay:10.37,2013-03-18 23:27:00,
2013-03-18 16:29:00,52.8,10.4,30.08,NNW,338,1.2,1.2,18,0.00,CLR,,0.00,390.0,WeatherDisplay:10.37,2013-03-18 23:29:00,
2013-03-18 16:32:00,53.8,11.2,30.08,NE,36,1.2,0.0,18,0.00,CLR,,0.00,436.8,WeatherDisplay:10.37,2013-03-18 23:32:00,
2013-03-18 16:34:00,54.6,10.6,30.08,NE,36,1.2,1.2,17,0.00,CLR,,0.00,426.0,WeatherDisplay:10.37,2013-03-18 23:34:00,
2013-03-18 16:35:00,54.8,10.7,30.08,NE,36,1.2,1.2,17,0.00,CLR,,0.00,426.0,WeatherDisplay:10.37,2013-03-18 23:35:00,
2013-03-18 16:37:00,54.6,9.2,30.08,WNW,300,4.6,4.6,16,0.00,CLR,,0.00,457.2,WeatherDisplay:10.37,2013-03-18 23:37:00,
2013-03-18 16:38:00,54.2,8.9,30.08,NW,313,3.5,3.5,16,0.00,CLR,,0.00,456.0,WeatherDisplay:10.37,2013-03-18 23:38:00,
2013-03-18 16:39:00,54.0,10.1,30.08,NW,311,3.5,3.5,17,0.00,CLR,,0.00,456.0,WeatherDisplay:10.37,2013-03-18 23:39:00,
2013-03-18 16:40:00,54.0,10.1,30.08,NW,309,3.5,3.5,17,0.00,CLR,,0.00,478.8,WeatherDisplay:10.37,2013-03-18 23:40:00,
2013-03-18 16:43:00,53.5,9.7,30.07,NW,304,3.5,3.5,17,0.00,CLR,,0.00,465.6,WeatherDisplay:10.37,2013-03-18 23:43:00,
2013-03-18 16:44:00,53.5,9.7,30.07,NW,304,3.5,3.5,17,0.00,CLR,,0.00,465.6,WeatherDisplay:10.37,2013-03-18 23:44:00,
2013-03-18 16:45:00,53.3,9.5,30.07,NW,304,3.5,3.5,17,0.00,CLR,,0.00,489.6,WeatherDisplay:10.37,2013-03-18 23:45:00,
2013-03-18 16:48:00,53.9,10.0,30.07,WNW,302,3.5,3.5,17,0.00,CLR,,0.00,434.4,WeatherDisplay:10.37,2013-03-18 23:48:00,
2013-03-18 16:49:00,54.0,10.1,30.07,WNW,302,3.5,3.5,17,0.00,CLR,,0.00,434.4,WeatherDisplay:10.37,2013-03-18 23:49:00,
2013-03-18 16:50:00,54.1,10.2,30.08,WNW,302,3.5,3.5,17,0.00,CLR,,0.00,420.0,WeatherDisplay:10.37,2013-03-18 23:50:00,
2013-03-18 16:53:00,54.2,10.3,30.08,WNW,302,3.5,3.5,17,0.00,CLR,,0.00,462.0,WeatherDisplay:10.37,2013-03-18 23:53:00,
2013-03-18 16:54:00,54.2,10.3,30.08,WNW,302,3.5,3.5,17,0.00,CLR,,0.00,442.8,WeatherDisplay:10.37,2013-03-18 23:54:00,
2013-03-18 16:55:00,54.5,10.5,30.08,NW,323,3.5,3.5,17,0.00,CLR,,0.00,426.0,WeatherDisplay:10.37,2013-03-18 23:55:00,
2013-03-18 16:59:00,55.5,8.5,30.08,NW,324,4.0,4.3,15,0.00,CLR,,0.00,489.6,WeatherDisplay:10.37,2013-03-18 23:59:00,
2013-03-18 17:00:00,54.6,9.2,30.08,NNW,338,4.6,4.6,16,0.00,CLR,,0.00,487.2,WeatherDisplay:10.37,2013-03-19 00:00:00,
2013-03-18 17:04:00,55.2,9.7,30.08,NNW,338,2.3,2.3,16,0.00,CLR,,0.00,487.2,WeatherDisplay:10.37,2013-03-19 00:04:00,
2013-03-18 17:05:00,55.4,9.9,30.08,NNW,338,2.3,2.3,16,0.00,CLR,,0.00,487.2,WeatherDisplay:10.37,2013-03-19 00:05:00,
2013-03-18 17:08:00,57.5,10.1,30.08,ESE,121,3.5,3.5,15,0.00,CLR,,0.00,470.4,WeatherDisplay:10.37,2013-03-19 00:08:00,
2013-03-18 17:09:00,58.3,10.8,30.08,North,9,2.3,2.3,15,0.00,CLR,,0.00,462.0,WeatherDisplay:10.37,2013-03-19 00:09:00,
2013-03-18 17:10:00,58.3,10.8,30.08,NNW,345,4.0,4.0,15,0.00,CLR,,0.00,453.6,WeatherDisplay:10.37,2013-03-19 00:10:00,
2013-03-18 17:13:00,57.4,10.0,30.08,North,5,5.8,5.8,15,0.00,CLR,,0.00,432.0,WeatherDisplay:10.37,2013-03-19 00:13:00,
2013-03-18 17:15:00,57.6,10.2,30.08,NE,53,3.5,3.5,15,0.00,CLR,,0.00,428.4,WeatherDisplay:10.37,2013-03-19 00:15:00,
2013-03-18 17:19:00,56.6,7.9,30.08,NNW,344,3.5,3.5,14,0.00,CLR,,0.00,417.6,WeatherDisplay:10.37,2013-03-19 00:19:00,
2013-03-18 17:20:00,56.5,10.8,30.08,NNW,342,2.0,2.0,16,0.00,CLR,,0.00,414.0,WeatherDisplay:10.37,2013-03-19 00:20:00,
2013-03-18 17:22:00,55.9,7.3,30.08,NNW,342,3.5,3.5,14,0.00,CLR,,0.00,403.2,WeatherDisplay:10.37,2013-03-19 00:22:00,
2013-03-18 17:24:00,55.3,9.8,30.08,WNW,290,5.8,5.8,16,0.00,CLR,,0.00,394.8,WeatherDisplay:10.37,2013-03-19 00:24:00,
2013-03-18 17:25:00,54.6,9.2,30.08,NW,308,5.8,5.8,16,0.00,CLR,,0.00,386.4,WeatherDisplay:10.37,2013-03-19 00:25:00,
2013-03-18 17:28:00,53.2,9.4,30.08,NW,308,5.0,5.0,17,0.00,CLR,,0.00,373.2,WeatherDisplay:10.37,2013-03-19 00:28:00,
2013-03-18 17:29:00,52.7,7.7,30.08,NW,316,4.6,4.6,16,0.00,CLR,,0.00,362.4,WeatherDisplay:10.37,2013-03-19 00:29:00,
2013-03-18 17:30:00,52.6,7.6,30.07,WNW,291,4.6,4.6,16,0.00,CLR,,0.00,356.4,WeatherDisplay:10.37,2013-03-19 00:30:00,
2013-03-18 17:33:00,52.6,8.9,30.08,WNW,292,3.5,3.5,17,0.00,CLR,,0.00,348.0,WeatherDisplay:10.37,2013-03-19 00:33:00,
2013-03-18 17:34:00,52.6,8.9,30.07,WNW,292,1.2,1.2,17,0.00,CLR,,0.00,339.6,WeatherDisplay:10.37,2013-03-19 00:34:00,
2013-03-18 17:35:00,52.9,9.2,30.07,WNW,292,1.2,1.2,17,0.00,CLR,,0.00,334.8,WeatherDisplay:10.37,2013-03-19 00:35:00,
2013-03-18 17:38:00,54.1,10.2,30.07,NW,309,5.8,5.8,17,0.00,CLR,,0.00,320.4,WeatherDisplay:10.37,2013-03-19 00:38:00,
2013-03-18 17:39:00,53.8,9.9,30.07,NW,309,5.8,5.8,17,0.00,CLR,,0.00,316.8,WeatherDisplay:10.37,2013-03-19 00:39:00,
2013-03-18 17:40:00,53.5,9.7,30.07,WNW,295,4.6,4.6,17,0.00,CLR,,0.00,312.0,WeatherDisplay:10.37,2013-03-19 00:40:00,
2013-03-18 17:43:00,53.1,9.4,30.07,WNW,290,3.5,3.5,17,0.00,CLR,,0.00,295.2,WeatherDisplay:10.37,2013-03-19 00:43:00,
2013-03-18 17:44:00,53.0,9.3,30.07,NNW,327,3.5,3.5,17,0.00,CLR,,0.00,291.6,WeatherDisplay:10.37,2013-03-19 00:44:00,
2013-03-18 17:45:00,53.0,10.6,30.07,NW,319,3.5,3.5,18,0.00,CLR,,0.00,289.2,WeatherDisplay:10.37,2013-03-19 00:45:00,
2013-03-18 17:48:00,54.5,10.5,30.07,NW,318,0.0,0.0,17,0.00,CLR,,0.00,272.4,WeatherDisplay:10.37,2013-03-19 00:48:00,
2013-03-18 17:49:00,55.1,11.0,30.07,NW,318,2.0,2.0,17,0.00,CLR,,0.00,267.6,WeatherDisplay:10.37,2013-03-19 00:49:00,
2013-03-18 17:50:00,55.6,10.0,30.07,NW,318,3.5,3.5,16,0.00,CLR,,0.00,264.0,WeatherDisplay:10.37,2013-03-19 00:50:00,
2013-03-18 17:51:00,55.6,10.0,30.07,NW,318,3.5,3.5,16,0.00,CLR,,0.00,255.6,WeatherDisplay:10.37,2013-03-19 00:51:00,
2013-03-18 17:53:00,54.8,9.4,30.07,NNW,342,3.5,3.5,16,0.00,CLR,,0.00,244.8,WeatherDisplay:10.37,2013-03-19 00:53:00,
2013-03-18 17:54:00,54.7,7.9,30.07,NNW,342,3.5,3.5,15,0.00,CLR,,0.00,244.8,WeatherDisplay:10.37,2013-03-19 00:54:00,
2013-03-18 17:55:00,55.1,8.2,30.07,NNW,342,1.2,1.2,15,0.00,CLR,,0.00,234.0,WeatherDisplay:10.37,2013-03-19 00:55:00,
2013-03-18 17:57:00,55.7,8.7,30.07,NNW,342,1.2,1.2,15,0.00,CLR,,0.00,230.4,WeatherDisplay:10.37,2013-03-19 00:57:00,
2013-03-18 17:59:00,56.2,7.5,30.07,NNW,342,3.5,3.5,14,0.00,CLR,,0.00,217.2,WeatherDisplay:10.37,2013-03-19 00:59:00,
2013-03-18 18:00:00,55.4,6.9,30.07,NW,318,4.0,4.0,14,0.00,CLR,,0.00,211.2,WeatherDisplay:10.37,2013-03-19 01:00:00,
2013-03-18 18:02:00,54.7,6.3,30.07,WNW,300,3.5,3.5,14,0.00,CLR,,0.00,206.4,WeatherDisplay:10.37,2013-03-19 01:02:00,
2013-03-18 18:04:00,53.9,7.2,30.07,WNW,300,3.5,3.5,15,0.00,CLR,,0.00,194.4,WeatherDisplay:10.37,2013-03-19 01:04:00,
2013-03-18 18:05:00,53.7,8.5,30.08,NW,309,2.3,2.3,16,0.00,CLR,,0.00,186.0,WeatherDisplay:10.37,2013-03-19 01:05:00,
2013-03-18 18:07:00,53.6,11.0,30.08,NW,315,3.5,3.5,18,0.00,CLR,,0.00,181.2,WeatherDisplay:10.37,2013-03-19 01:07:00,
2013-03-18 18:09:00,53.5,11.0,30.07,NW,311,4.0,4.0,18,0.00,CLR,,0.00,166.8,WeatherDisplay:10.37,2013-03-19 01:09:00,
2013-03-18 18:10:00,53.0,10.6,30.07,NW,315,3.5,3.5,18,0.00,CLR,,0.00,160.8,WeatherDisplay:10.37,2013-03-19 01:10:00,
2013-03-18 18:12:00,52.6,10.2,30.07,NW,315,3.5,3.5,18,0.00,CLR,,0.00,152.4,WeatherDisplay:10.37,2013-03-19 01:12:00,
2013-03-18 18:14:00,52.5,10.1,30.07,NW,315,1.2,1.2,18,0.00,CLR,,0.00,145.2,WeatherDisplay:10.37,2013-03-19 01:14:00,
2013-03-18 18:15:00,52.8,10.4,30.07,NW,315,1.2,0.0,18,0.00,CLR,,0.00,139.2,WeatherDisplay:10.37,2013-03-19 01:15:00,
2013-03-18 18:17:00,54.5,11.8,30.07,NW,315,0.0,0.0,18,0.00,CLR,,0.00,130.8,WeatherDisplay:10.37,2013-03-19 01:17:00,
2013-03-18 18:19:00,55.6,11.4,30.07,NW,315,1.2,1.2,17,0.00,CLR,,0.00,124.8,WeatherDisplay:10.37,2013-03-19 01:19:00,
2013-03-18 18:21:00,56.0,10.4,30.07,NW,315,2.3,2.3,16,0.00,CLR,,0.00,120.0,WeatherDisplay:10.37,2013-03-19 01:21:00,
2013-03-18 18:23:00,55.9,10.3,30.07,NW,315,1.2,0.0,16,0.00,CLR,,0.00,114.0,WeatherDisplay:10.37,2013-03-19 01:23:00,
2013-03-18 18:24:00,55.3,9.8,30.07,NW,315,2.3,2.3,16,0.00,CLR,,0.00,108.0,WeatherDisplay:10.37,2013-03-19 01:24:00,
2013-03-18 18:26:00,54.2,8.9,30.07,NW,315,2.3,2.3,16,0.00,CLR,,0.00,100.8,WeatherDisplay:10.37,2013-03-19 01:26:00,
2013-03-18 18:28:00,53.6,9.8,30.07,NW,315,3.0,3.0,17,0.00,CLR,,0.00,94.8,WeatherDisplay:10.37,2013-03-19 01:28:00,
2013-03-18 18:29:00,53.2,9.4,30.07,NW,309,4.0,4.0,17,0.00,CLR,,0.00,88.8,WeatherDisplay:10.37,2013-03-19 01:29:00,
2013-03-18 18:30:00,53.0,9.3,30.07,WNW,290,4.6,4.6,17,0.00,CLR,,0.00,88.8,WeatherDisplay:10.37,2013-03-19 01:30:00,
2013-03-18 18:32:00,52.2,9.9,30.07,NW,304,3.5,3.5,18,0.00,CLR,,0.00,80.4,WeatherDisplay:10.37,2013-03-19 01:32:00,
2013-03-18 18:33:00,51.8,9.6,30.07,NW,304,3.5,3.5,18,0.00,CLR,,0.00,75.6,WeatherDisplay:10.37,2013-03-19 01:33:00,
2013-03-18 18:34:00,51.5,8.0,30.06,WNW,284,4.6,4.6,17,0.00,CLR,,0.00,72.0,WeatherDisplay:10.37,2013-03-19 01:34:00,
2013-03-18 18:35:00,51.4,8.0,30.06,WNW,284,4.6,4.6,17,0.00,CLR,,0.00,72.0,WeatherDisplay:10.37,2013-03-19 01:35:00,
2013-03-18 18:38:00,50.9,8.8,30.07,WNW,299,3.5,3.5,18,0.00,CLR,,0.00,61.2,WeatherDisplay:10.37,2013-03-19 01:38:00,
2013-03-18 18:39:00,50.8,8.7,30.07,WNW,299,2.3,2.3,18,0.00,FEW,,0.00,56.4,WeatherDisplay:10.37,2013-03-19 01:39:00,
2013-03-18 18:40:00,50.8,8.7,30.07,WNW,299,2.3,2.3,18,0.00,FEW,,0.00,55.2,WeatherDisplay:10.37,2013-03-19 01:40:00,
2013-03-18 18:43:00,50.4,8.4,30.07,WNW,299,2.3,2.3,18,0.00,FEW,,0.00,46.8,WeatherDisplay:10.37,2013-03-19 01:43:00,
2013-03-18 18:44:00,50.3,9.5,30.07,WNW,299,2.3,2.3,19,0.00,FEW,,0.00,46.8,WeatherDisplay:10.37,2013-03-19 01:44:00,
2013-03-18 18:45:00,50.2,9.5,30.06,WNW,299,3.5,3.5,19,0.00,FEW,,0.00,42.0,WeatherDisplay:10.37,2013-03-19 01:45:00,
2013-03-18 18:48:00,49.8,14.4,30.07,NW,306,3.5,3.5,24,0.00,SCT,,0.00,33.6,WeatherDisplay:10.37,2013-03-19 01:48:00,
2013-03-18 18:49:00,49.7,16.2,30.07,NW,311,5.8,5.8,26,0.00,SCT,,0.00,33.6,WeatherDisplay:10.37,2013-03-19 01:49:00,
2013-03-18 18:50:00,49.5,16.9,30.07,NW,317,5.8,5.8,27,0.00,SCT,,0.00,31.2,WeatherDisplay:10.37,2013-03-19 01:50:00,
2013-03-18 18:53:00,48.7,18.6,30.07,North,349,4.6,4.6,30,0.00,SCT,,0.00,25.2,WeatherDisplay:10.37,2013-03-19 01:53:00,
2013-03-18 18:54:00,48.5,19.2,30.07,NNW,343,3.5,3.5,31,0.00,SCT,,0.00,25.2,WeatherDisplay:10.37,2013-03-19 01:54:00,
2013-03-18 18:55:00,48.3,19.0,30.07,NNW,330,3.5,3.5,31,0.00,SCT,,0.00,22.8,WeatherDisplay:10.37,2013-03-19 01:55:00,
2013-03-18 18:58:00,47.3,19.6,30.07,NW,319,5.0,5.0,33,0.00,SCT,,0.00,16.8,WeatherDisplay:10.37,2013-03-19 01:58:00,
2013-03-18 18:59:00,47.0,20.0,30.07,NNW,331,4.6,4.6,34,0.00,SCT,,0.00,14.4,WeatherDisplay:10.37,2013-03-19 01:59:00,
2013-03-18 19:00:00,46.9,20.6,30.07,NNW,331,4.6,4.6,35,0.00,SCT,,0.00,14.4,WeatherDisplay:10.37,2013-03-19 02:00:00,
2013-03-18 19:03:00,46.2,20.7,30.07,NNW,332,3.5,3.5,36,0.00,SCT,,0.00,10.8,WeatherDisplay:10.37,2013-03-19 02:03:00,
2013-03-18 19:04:00,46.1,20.6,30.07,North,349,3.5,3.5,36,0.00,SCT,,0.00,10.8,WeatherDisplay:10.37,2013-03-19 02:04:00,
2013-03-18 19:05:00,46.1,20.6,30.07,North,349,3.5,3.5,36,0.00,SCT,,0.00,10.8,WeatherDisplay:10.37,2013-03-19 02:05:00,
2013-03-18 19:09:00,45.5,20.7,30.07,North,351,5.8,5.8,37,0.00,CLR,,0.00,6.0,WeatherDisplay:10.37,2013-03-19 02:09:00,
2013-03-18 19:10:00,45.4,21.2,30.07,North,355,3.5,3.5,38,0.00,CLR,,0.00,6.0,WeatherDisplay:10.37,2013-03-19 02:10:00,
2013-03-18 19:14:00,45.0,21.5,30.07,NW,326,3.5,3.5,39,0.00,,,0.00,0.0,WeatherDisplay:10.37,2013-03-19 02:14:00,
2013-03-18 19:15:00,44.8,21.3,30.07,NW,326,3.5,3.5,39,0.00,,,0.00,0.0,WeatherDisplay:10.37,2013-03-19 02:15:00,
2013-03-18 19:19:00,44.1,21.3,30.07,NNW,328,3.5,3.5,40,0.00,,,0.00,0.0,WeatherDisplay:10.37,2013-03-19 02:19:00,
2013-03-18 19:20:00,44.1,21.3,30.07,NNW,328,2.3,2.3,40,0.00,,,0.00,0.0,WeatherDisplay:10.37,2013-03-19 02:20:00,
2013-03-18 19:24:00,43.4,21.8,30.07,NW,320,3.5,3.5,42,0.00,,,0.00,0.0,WeatherDisplay:10.37,2013-03-19 02:24:00,
2013-03-18 19:25:00,43.4,21.8,30.07,NW,320,3.5,3.5,42,0.00,,,0.00,0.0,WeatherDisplay:10.37,2013-03-19 02:25:00,
2013-03-18 19:29:00,42.5,21.5,30.07,NW,320,2.3,2.3,43,0.00,,,0.00,0.0,WeatherDisplay:10.37,2013-03-19 02:29:00,
2013-03-18 19:30:00,42.5,21.5,30.07,NW,320,2.3,2.3,43,0.00,,,0.00,0.0,WeatherDisplay:10.37,2013-03-19 02:30:00,
2013-03-18 19:34:00,41.7,21.9,30.07,WNW,300,3.5,3.5,45,0.00,,,0.00,0.0,WeatherDisplay:10.37,2013-03-19 02:34:00,
2013-03-18 19:35:00,41.7,21.9,30.07,WNW,300,3.5,3.5,45,0.00,,,0.00,0.0,WeatherDisplay:10.37,2013-03-19 02:35:00,
2013-03-18 19:40:00,41.4,22.1,30.07,WNW,298,3.5,3.5,46,0.00,,,0.00,0.0,WeatherDisplay:10.37,2013-03-19 02:40:00,
2013-03-18 19:45:00,41.0,22.3,30.07,NW,305,4.6,4.6,47,0.00,,,0.00,0.0,WeatherDisplay:10.37,2013-03-19 02:45:00,
2013-03-18 19:46:00,40.9,22.2,30.07,NW,304,3.5,3.5,47,0.00,,,0.00,0.0,WeatherDisplay:10.37,2013-03-19 02:46:00,
2013-03-18 19:50:00,40.5,22.3,30.07,WNW,297,4.0,4.0,48,0.00,,,0.00,0.0,WeatherDisplay:10.37,2013-03-19 02:50:00,
2013-03-18 19:51:00,40.5,22.3,30.07,WNW,299,3.5,3.5,48,0.00,,,0.00,0.0,WeatherDisplay:10.37,2013-03-19 02:51:00,
2013-03-18 19:55:00,40.1,22.4,30.08,NW,304,4.6,4.6,49,0.00,,,0.00,0.0,WeatherDisplay:10.37,2013-03-19 02:55:00,
2013-03-18 19:56:00,40.1,22.4,30.08,WNW,302,4.6,4.6,49,0.00,,,0.00,0.0,WeatherDisplay:10.37,2013-03-19 02:56:00,
2013-03-18 19:57:00,40.0,22.4,30.08,WNW,298,3.5,3.5,49,0.00,,,0.00,0.0,WeatherDisplay:10.37,2013-03-19 02:57:00,
2013-03-18 20:00:00,39.8,22.7,30.08,WNW,296,3.5,3.5,50,0.00,,,0.00,0.0,WeatherDisplay:10.37,2013-03-19 03:00:00,
2013-03-18 20:01:00,39.8,22.7,30.08,WNW,296,3.5,3.5,50,0.00,,,0.00,0.0,WeatherDisplay:10.37,2013-03-19 03:01:00,
2013-03-18 20:02:00,39.7,22.6,30.08,WNW,296,3.5,3.5,50,0.00,,,0.00,0.0,WeatherDisplay:10.37,2013-03-19 03:02:00,
2013-03-18 20:05:00,39.5,22.4,30.08,WNW,296,3.5,3.5,50,0.00,,,0.00,0.0,WeatherDisplay:10.37,2013-03-19 03:05:00,
2013-03-18 20:07:00,39.4,22.8,30.08,WNW,299,4.0,4.0,51,0.00,,,0.00,0.0,WeatherDisplay:10.37,2013-03-19 03:07:00,
2013-03-18 20:08:00,39.3,22.7,30.08,WNW,296,3.5,3.5,51,0.00,,,0.00,0.0,WeatherDisplay:10.37,2013-03-19 03:08:00,
2013-03-18 20:10:00,39.1,22.5,30.08,WNW,302,4.6,4.6,51,0.00,,,0.00,0.0,WeatherDisplay:10.37,2013-03-19 03:10:00,
2013-03-18 20:12:00,39.0,22.4,30.08,NW,306,5.0,5.0,51,0.00,,,0.00,0.0,WeatherDisplay:10.37,2013-03-19 03:12:00,
2013-03-18 20:13:00,39.0,22.8,30.08,WNW,299,4.6,4.6,52,0.00,,,0.00,0.0,WeatherDisplay:10.37,2013-03-19 03:13:00,
2013-03-18 20:15:00,38.9,22.8,30.09,WNW,294,6.0,6.0,52,0.00,,,0.00,0.0,WeatherDisplay:10.37,2013-03-19 03:15:00,
2013-03-18 20:17:00,38.8,22.7,30.08,WNW,297,5.8,5.8,52,0.00,,,0.00,0.0,WeatherDisplay:10.37,2013-03-19 03:17:00,
2013-03-18 20:18:00,38.7,23.0,30.08,WNW,300,5.8,5.8,53,0.00,,,0.00,0.0,WeatherDisplay:10.37,2013-03-19 03:18:00,
2013-03-18 20:20:00,38.6,22.9,30.08,WNW,302,3.5,3.6,53,0.00,,,0.00,0.0,WeatherDisplay:10.37,2013-03-19 03:20:00,
2013-03-18 20:22:00,38.4,22.7,30.08,WNW,297,6.9,6.9,53,0.00,,,0.00,0.0,WeatherDisplay:10.37,2013-03-19 03:22:00,
2013-03-18 20:23:00,38.4,22.7,30.09,NW,307,6.9,6.9,53,0.00,,,0.00,0.0,WeatherDisplay:10.37,2013-03-19 03:23:00,
2013-03-18 20:24:00,38.4,22.7,30.09,NW,307,6.9,6.9,53,0.00,,,0.00,0.0,WeatherDisplay:10.37,2013-03-19 03:24:00,
2013-03-18 20:26:00,38.3,22.6,30.09,NW,307,3.5,3.5,53,0.00,,,0.00,0.0,WeatherDisplay:10.37,2013-03-19 03:26:00,
2013-03-18 20:27:00,38.2,22.6,30.09,NW,307,3.5,3.5,53,0.00,,,0.00,0.0,WeatherDisplay:10.37,2013-03-19 03:27:00,
2013-03-18 20:28:00,38.2,22.6,30.09,NW,307,3.5,3.5,53,0.00,,,0.00,0.0,WeatherDisplay:10.37,2013-03-19 03:28:00,
2013-03-18 20:29:00,38.2,22.6,30.09,NW,307,2.3,2.3,53,0.00,,,0.00,0.0,WeatherDisplay:10.37,2013-03-19 03:29:00,
2013-03-18 20:32:00,38.0,22.8,30.09,NW,307,3.5,3.5,54,0.00,,,0.00,0.0,WeatherDisplay:10.37,2013-03-19 03:32:00,
2013-03-18 20:33:00,37.9,22.7,30.09,NW,307,1.2,1.2,54,0.00,,,0.00,0.0,WeatherDisplay:10.37,2013-03-19 03:33:00,
2013-03-18 20:34:00,37.8,22.6,30.09,NW,307,1.2,1.2,54,0.00,,,0.00,0.0,WeatherDisplay:10.37,2013-03-19 03:34:00,
2013-03-18 20:37:00,37.8,22.6,30.09,NW,307,0.0,0.0,54,0.00,,,0.00,0.0,WeatherDisplay:10.37,2013-03-19 03:37:00,
2013-03-18 20:38:00,37.7,22.5,30.09,NW,307,0.0,0.0,54,0.00,,,0.00,0.0,WeatherDisplay:10.37,2013-03-19 03:38:00,
2013-03-18 20:39:00,37.7,22.5,30.09,NW,307,1.2,1.2,54,0.00,,,0.00,0.0,WeatherDisplay:10.37,2013-03-19 03:39:00,
2013-03-18 20:42:00,37.6,22.4,30.09,NW,307,1.2,1.2,54,0.00,,,0.00,0.0,WeatherDisplay:10.37,2013-03-19 03:42:00,
2013-03-18 20:43:00,37.5,22.3,30.09,NW,307,1.2,1.2,54,0.00,,,0.00,0.0,WeatherDisplay:10.37,2013-03-19 03:43:00,
2013-03-18 20:44:00,37.5,22.3,30.09,NW,307,2.3,2.3,54,0.00,,,0.00,0.0,WeatherDisplay:10.37,2013-03-19 03:44:00,
2013-03-18 20:47:00,37.4,22.3,30.10,NW,307,2.3,2.3,54,0.00,,,0.00,0.0,WeatherDisplay:10.37,2013-03-19 03:47:00,
2013-03-18 20:48:00,37.4,22.3,30.10,NW,307,1.2,1.2,54,0.00,,,0.00,0.0,WeatherDisplay:10.37,2013-03-19 03:48:00,
2013-03-18 20:50:00,37.4,22.7,30.10,NW,307,0.0,0.0,55,0.00,,,0.00,0.0,WeatherDisplay:10.37,2013-03-19 03:50:00,
2013-03-18 20:52:00,37.3,22.6,30.10,NW,307,1.0,1.0,55,0.00,,,0.00,0.0,WeatherDisplay:10.37,2013-03-19 03:52:00,
2013-03-18 20:53:00,37.2,22.5,30.10,NW,307,0.0,0.1,55,0.00,,,0.00,0.0,WeatherDisplay:10.37,2013-03-19 03:53:00,
2013-03-18 20:55:00,37.2,22.5,30.10,NW,307,0.0,0.0,55,0.00,,,0.00,0.0,WeatherDisplay:10.37,2013-03-19 03:55:00,
2013-03-18 20:57:00,37.1,22.4,30.10,NW,307,1.2,0.0,55,0.00,,,0.00,0.0,WeatherDisplay:10.37,2013-03-19 03:57:00,
2013-03-18 20:58:00,37.1,22.4,30.10,NW,307,0.0,0.0,55,0.00,,,0.00,0.0,WeatherDisplay:10.37,2013-03-19 03:58:00,
2013-03-18 20:59:00,37.1,22.4,30.10,NW,307,1.0,1.0,55,0.00,,,0.00,0.0,WeatherDisplay:10.37,2013-03-19 03:59:00,
2013-03-18 21:00:00,37.1,22.4,30.10,NW,307,1.2,0.0,55,0.00,,,0.00,0.0,WeatherDisplay:10.37,2013-03-19 04:00:00,
2013-03-18 21:02:00,37.1,22.4,30.10,NW,307,0.0,0.0,55,0.00,,,0.00,0.0,WeatherDisplay:10.37,2013-03-19 04:02:00,
2013-03-18 21:05:00,36.9,22.7,30.10,NW,307,1.2,1.2,56,0.00,,,0.00,0.0,WeatherDisplay:10.37,2013-03-19 04:05:00,
2013-03-18 21:07:00,36.9,22.7,30.11,NW,307,1.2,1.2,56,0.00,,,0.00,0.0,WeatherDisplay:10.37,2013-03-19 04:07:00,
2013-03-18 21:10:00,36.9,22.7,30.11,NW,307,1.2,1.2,56,0.00,,,0.00,0.0,WeatherDisplay:10.37,2013-03-19 04:10:00,
2013-03-18 21:13:00,36.7,22.5,30.11,NW,307,2.3,2.3,56,0.00,,,0.00,0.0,WeatherDisplay:10.37,2013-03-19 04:13:00,
2013-03-18 21:15:00,36.6,22.8,30.11,NW,307,3.0,3.0,57,0.00,,,0.00,0.0,WeatherDisplay:10.37,2013-03-19 04:15:00,
2013-03-18 21:18:00,36.3,22.5,30.11,NW,307,3.5,3.5,57,0.00,,,0.00,0.0,WeatherDisplay:10.37,2013-03-19 04:18:00,
2013-03-18 21:20:00,36.1,22.7,30.11,NW,307,3.5,3.5,58,0.00,,,0.00,0.0,WeatherDisplay:10.37,2013-03-19 04:20:00,
2013-03-18 21:21:00,36.2,22.8,30.11,NW,307,3.5,3.5,58,0.00,,,0.00,0.0,WeatherDisplay:10.37,2013-03-19 04:21:00,
2013-03-18 21:22:00,36.1,22.7,30.11,NW,307,3.5,3.5,58,0.00,,,0.00,0.0,WeatherDisplay:10.37,2013-03-19 04:22:00,
2013-03-18 21:23:00,36.0,22.6,30.11,NW,307,1.2,1.2,58,0.00,,,0.00,0.0,WeatherDisplay:10.37,2013-03-19 04:23:00,
2013-03-18 21:25:00,35.9,22.5,30.11,NW,307,1.2,1.2,58,0.00,,,0.00,0.0,WeatherDisplay:10.37,2013-03-19 04:25:00,
2013-03-18 21:26:00,35.9,22.5,30.11,NW,307,1.2,0.0,58,0.00,,,0.00,0.0,WeatherDisplay:10.37,2013-03-19 04:26:00,
2013-03-18 21:27:00,35.9,22.5,30.11,NW,307,0.0,0.0,58,0.00,,,0.00,0.0,WeatherDisplay:10.37,2013-03-19 04:27:00,
2013-03-18 21:28:00,35.8,22.5,30.11,NW,307,0.0,0.0,58,0.00,,,0.00,0.0,WeatherDisplay:10.37,2013-03-19 04:28:00,
2013-03-18 21:30:00,35.7,22.4,30.11,NW,307,1.0,1.0,58,0.00,,,0.00,0.0,WeatherDisplay:10.37,2013-03-19 04:30:00,
2013-03-18 21:31:00,35.7,22.8,30.11,NW,307,2.3,2.3,59,0.00,,,0.00,0.0,WeatherDisplay:10.37,2013-03-19 04:31:00,
2013-03-18 21:34:00,35.5,22.6,30.11,NW,307,0.0,0.0,59,0.00,,,0.00,0.0,WeatherDisplay:10.37,2013-03-19 04:34:00,
2013-03-18 21:35:00,35.5,22.6,30.11,NW,307,0.0,0.0,59,0.00,,,0.00,0.0,WeatherDisplay:10.37,2013-03-19 04:35:00,
2013-03-18 21:37:00,35.4,22.5,30.11,NW,307,0.0,0.0,59,0.00,,,0.00,0.0,WeatherDisplay:10.37,2013-03-19 04:37:00,
2013-03-18 21:39:00,35.4,22.5,30.11,NW,307,0.0,0.1,59,0.00,,,0.00,0.0,WeatherDisplay:10.37,2013-03-19 04:39:00,
2013-03-18 21:40:00,35.4,22.5,30.11,NW,307,1.2,1.2,59,0.00,,,0.00,0.0,WeatherDisplay:10.37,2013-03-19 04:40:00,
2013-03-18 21:42:00,35.3,22.4,30.11,NW,307,1.2,0.0,59,0.00,,,0.00,0.0,WeatherDisplay:10.37,2013-03-19 04:42:00,
2013-03-18 21:44:00,35.2,22.7,30.11,NW,307,0.0,0.0,60,0.00,,,0.00,0.0,WeatherDisplay:10.37,2013-03-19 04:44:00,
2013-03-18 21:45:00,35.1,22.6,30.11,NW,307,0.0,0.0,60,0.00,,,0.00,0.0,WeatherDisplay:10.37,2013-03-19 04:45:00,
2013-03-18 21:47:00,34.9,22.4,30.11,NW,307,1.2,1.2,60,0.00,,,0.00,0.0,WeatherDisplay:10.37,2013-03-19 04:47:00,
2013-03-18 21:50:00,34.8,22.3,30.11,NW,307,0.0,0.0,60,0.00,,,0.00,0.0,WeatherDisplay:10.37,2013-03-19 04:50:00,
2013-03-18 21:52:00,34.8,22.3,30.11,NW,307,0.0,0.0,60,0.00,,,0.00,0.0,WeatherDisplay:10.37,2013-03-19 04:52:00,
2013-03-18 21:55:00,34.7,22.2,30.11,NW,307,0.0,0.0,60,0.00,,,0.00,0.0,WeatherDisplay:10.37,2013-03-19 04:55:00,
2013-03-18 21:56:00,34.6,22.1,30.11,NW,307,0.0,0.0,60,0.00,,,0.00,0.0,WeatherDisplay:10.37,2013-03-19 04:56:00,
2013-03-18 21:57:00,34.5,21.6,30.11,NW,307,0.0,0.0,59,0.00,,,0.00,0.0,WeatherDisplay:10.37,2013-03-19 04:57:00,
2013-03-18 21:58:00,34.4,21.5,30.11,NW,307,0.0,0.0,59,0.00,,,0.00,0.0,WeatherDisplay:10.37,2013-03-19 04:58:00,
2013-03-18 22:00:00,34.3,21.8,30.11,NW,307,0.0,0.0,60,0.00,,,0.00,0.0,WeatherDisplay:10.37,2013-03-19 05:00:00,
2013-03-18 22:02:00,34.2,21.7,30.11,NW,307,0.0,0.0,60,0.00,,,0.00,0.0,WeatherDisplay:10.37,2013-03-19 05:02:00,
2013-03-18 22:03:00,34.2,21.7,30.11,NW,307,0.0,0.0,60,0.00,CLR,,0.00,0.0,WeatherDisplay:10.37,2013-03-19 05:03:00,
2013-03-18 22:05:00,33.9,21.5,30.11,NW,307,1.2,1.2,60,0.00,CLR,,0.00,0.0,WeatherDisplay:10.37,2013-03-19 05:05:00,
2013-03-18 22:07:00,33.7,21.3,30.11,NW,307,1.2,1.2,60,0.00,CLR,,0.00,0.0,WeatherDisplay:10.37,2013-03-19 05:07:00,
2013-03-18 22:08:00,33.7,21.3,30.11,NW,307,1.2,0.0,60,0.00,CLR,,0.00,0.0,WeatherDisplay:10.37,2013-03-19 05:08:00,
2013-03-18 22:11:00,33.4,21.4,30.11,NW,307,0.0,0.0,61,0.00,CLR,,0.00,0.0,WeatherDisplay:10.37,2013-03-19 05:11:00,
2013-03-18 22:12:00,33.4,21.4,30.11,NW,307,0.0,0.0,61,0.00,CLR,,0.00,0.0,WeatherDisplay:10.37,2013-03-19 05:12:00,
2013-03-18 22:13:00,33.3,21.7,30.11,NW,307,0.0,0.0,62,0.00,CLR,,0.00,0.0,WeatherDisplay:10.37,2013-03-19 05:13:00,
2013-03-18 22:14:00,33.1,21.5,30.11,NW,307,0.0,0.0,62,0.00,CLR,,0.00,0.0,WeatherDisplay:10.37,2013-03-19 05:14:00,
2013-03-18 22:16:00,33.0,21.8,30.11,NW,307,0.0,0.0,63,0.00,CLR,,0.00,0.0,WeatherDisplay:10.37,2013-03-19 05:16:00,
2013-03-18 22:17:00,33.0,21.8,30.11,NW,307,0.0,0.0,63,0.00,CLR,,0.00,0.0,WeatherDisplay:10.37,2013-03-19 05:17:00,
2013-03-18 22:18:00,33.0,21.8,30.11,NW,307,0.0,0.0,63,0.00,CLR,,0.00,0.0,WeatherDisplay:10.37,2013-03-19 05:18:00,
2013-03-18 22:19:00,33.0,21.8,30.11,NW,307,0.0,0.0,63,0.00,CLR,,0.00,0.0,WeatherDisplay:10.37,2013-03-19 05:19:00,
2013-03-18 22:22:00,32.9,22.4,30.11,NW,307,0.0,0.0,65,0.00,CLR,,0.00,0.0,WeatherDisplay:10.37,2013-03-19 05:22:00,
2013-03-18 22:23:00,32.9,22.8,30.11,NW,307,0.0,0.0,66,0.00,CLR,,0.00,0.0,WeatherDisplay:10.37,2013-03-19 05:23:00,
2013-03-18 22:24:00,32.8,22.7,30.11,NW,307,0.0,0.0,66,0.00,CLR,,0.00,0.0,WeatherDisplay:10.37,2013-03-19 05:24:00,
2013-03-18 22:27:00,32.8,22.7,30.11,NW,307,0.0,0.0,66,0.00,CLR,,0.00,0.0,WeatherDisplay:10.37,2013-03-19 05:27:00,
2013-03-18 22:28:00,32.8,22.7,30.11,NW,307,0.0,0.0,66,0.00,CLR,,0.00,0.0,WeatherDisplay:10.37,2013-03-19 05:28:00,
2013-03-18 22:30:00,32.7,22.6,30.11,NW,307,0.0,0.0,66,0.00,CLR,,0.00,0.0,WeatherDisplay:10.37,2013-03-19 05:30:00,
2013-03-18 22:32:00,32.6,22.5,30.11,NW,307,0.0,0.0,66,0.00,CLR,,0.00,0.0,WeatherDisplay:10.37,2013-03-19 05:32:00,
2013-03-18 22:33:00,32.6,22.5,30.11,NW,307,0.0,0.0,66,0.00,CLR,,0.00,0.0,WeatherDisplay:10.37,2013-03-19 05:33:00,
2013-03-18 22:35:00,32.6,22.5,30.11,NW,307,0.0,0.0,66,0.00,CLR,,0.00,0.0,WeatherDisplay:10.37,2013-03-19 05:35:00,
2013-03-18 22:38:00,32.6,22.5,30.11,NW,307,0.0,0.0,66,0.00,CLR,,0.00,0.0,WeatherDisplay:10.37,2013-03-19 05:38:00,
2013-03-18 22:40:00,32.6,22.5,30.11,NW,307,0.0,0.0,66,0.00,CLR,,0.00,0.0,WeatherDisplay:10.37,2013-03-19 05:40:00,
2013-03-18 22:43:00,32.7,22.6,30.11,NW,307,0.0,0.0,66,0.00,CLR,,0.00,0.0,WeatherDisplay:10.37,2013-03-19 05:43:00,
2013-03-18 22:47:00,32.7,22.9,30.11,NW,307,1.2,0.0,67,0.00,CLR,,0.00,0.0,WeatherDisplay:10.37,2013-03-19 05:47:00,
2013-03-18 22:48:00,32.7,22.9,30.11,NW,307,1.2,0.0,67,0.00,CLR,,0.00,0.0,WeatherDisplay:10.37,2013-03-19 05:48:00,
2013-03-18 22:52:00,32.6,22.8,30.11,NW,307,1.2,1.2,67,0.00,CLR,,0.00,0.0,WeatherDisplay:10.37,2013-03-19 05:52:00,
2013-03-18 22:53:00,32.6,22.8,30.11,NW,307,1.2,0.0,67,0.00,CLR,,0.00,0.0,WeatherDisplay:10.37,2013-03-19 05:53:00,
2013-03-18 22:57:00,32.5,23.1,30.11,NW,307,1.2,1.2,68,0.00,CLR,,0.00,0.0,WeatherDisplay:10.37,2013-03-19 05:57:00,
2013-03-18 22:58:00,32.5,23.1,30.11,NW,307,1.2,0.0,68,0.00,CLR,,0.00,0.0,WeatherDisplay:10.37,2013-03-19 05:58:00,
2013-03-18 23:03:00,32.5,23.1,30.11,NW,306,2.3,0.0,68,0.00,,,0.00,0.0,WeatherDisplay:10.37,2013-03-19 06:03:00,
2013-03-18 23:04:00,32.5,23.1,30.11,NW,306,0.0,0.0,68,0.00,,,0.00,0.0,WeatherDisplay:10.37,2013-03-19 06:04:00,
2013-03-18 23:08:00,32.4,22.7,30.11,NW,306,0.0,0.0,67,0.00,,,0.00,0.0,WeatherDisplay:10.37,2013-03-19 06:08:00,
2013-03-18 23:09:00,32.4,22.7,30.11,NW,306,0.0,0.0,67,0.00,,,0.00,0.0,WeatherDisplay:10.37,2013-03-19 06:09:00,
2013-03-18 23:13:00,32.4,23.0,30.11,NW,306,0.0,0.0,68,0.00,,,0.00,0.0,WeatherDisplay:10.37,2013-03-19 06:13:00,
2013-03-18 23:14:00,32.4,23.0,30.11,NW,306,0.0,0.0,68,0.00,,,0.00,0.0,WeatherDisplay:10.37,2013-03-19 06:14:00,
2013-03-18 23:18:00,32.6,23.6,30.11,NW,306,1.2,0.0,69,0.00,,,0.00,0.0,WeatherDisplay:10.37,2013-03-19 06:18:00,
2013-03-18 23:19:00,32.6,23.6,30.11,NW,306,1.2,0.0,69,0.00,,,0.00,0.0,WeatherDisplay:10.37,2013-03-19 06:19:00,
2013-03-18 23:23:00,32.9,23.5,30.11,NW,306,1.2,1.2,68,0.00,,,0.00,0.0,WeatherDisplay:10.37,2013-03-19 06:23:00,
2013-03-18 23:24:00,33.0,23.6,30.11,NW,306,1.2,1.2,68,0.00,,,0.00,0.0,WeatherDisplay:10.37,2013-03-19 06:24:00,
2013-03-18 23:25:00,33.0,23.6,30.11,NW,306,1.2,1.2,68,0.00,,,0.00,0.0,WeatherDisplay:10.37,2013-03-19 06:25:00,
2013-03-18 23:29:00,33.2,23.4,30.11,NW,306,0.0,0.0,67,0.00,,,0.00,0.0,WeatherDisplay:10.37,2013-03-19 06:29:00,
2013-03-18 23:30:00,33.2,23.4,30.11,NW,306,0.0,0.0,67,0.00,,,0.00,0.0,WeatherDisplay:10.37,2013-03-19 06:30:00,
2013-03-18 23:34:00,33.2,23.4,30.11,NW,306,1.2,0.0,67,0.00,,,0.00,0.0,WeatherDisplay:10.37,2013-03-19 06:34:00,
2013-03-18 23:35:00,33.3,23.5,30.11,NW,306,0.0,0.0,67,0.00,,,0.00,0.0,WeatherDisplay:10.37,2013-03-19 06:35:00,
2013-03-18 23:36:00,33.3,23.5,30.11,NW,306,0.0,0.0,67,0.00,,,0.00,0.0,WeatherDisplay:10.37,2013-03-19 06:36:00,
2013-03-18 23:39:00,33.2,23.4,30.12,NW,306,1.2,1.2,67,0.00,,,0.00,0.0,WeatherDisplay:10.37,2013-03-19 06:39:00,
2013-03-18 23:40:00,33.2,23.4,30.12,NW,306,1.2,1.2,67,0.00,,,0.00,0.0,WeatherDisplay:10.37,2013-03-19 06:40:00,
2013-03-18 23:41:00,33.2,23.4,30.12,NW,306,1.2,1.2,67,0.00,,,0.00,0.0,WeatherDisplay:10.37,2013-03-19 06:41:00,
2013-03-18 23:44:00,33.3,23.5,30.12,NW,306,1.2,1.2,67,0.00,,,0.00,0.0,WeatherDisplay:10.37,2013-03-19 06:44:00,
2013-03-18 23:45:00,33.2,23.8,30.12,NW,306,2.3,2.3,68,0.00,,,0.00,0.0,WeatherDisplay:10.37,2013-03-19 06:45:00,
2013-03-18 23:47:00,33.2,23.8,30.12,NW,306,3.5,3.5,68,0.00,,,0.00,0.0,WeatherDisplay:10.37,2013-03-19 06:47:00,
2013-03-18 23:50:00,33.2,23.8,30.12,NW,306,3.5,3.5,68,0.00,,,0.00,0.0,WeatherDisplay:10.37,2013-03-19 06:50:00,
2013-03-18 23:51:00,33.2,23.8,30.12,NW,306,3.5,3.5,68,0.00,,,0.00,0.0,WeatherDisplay:10.37,2013-03-19 06:51:00,
2013-03-18 23:52:00,33.2,23.8,30.12,NW,306,2.3,2.3,68,0.00,,,0.00,0.0,WeatherDisplay:10.37,2013-03-19 06:52:00,
2013-03-18 23:55:00,33.1,23.7,30.12,NW,306,2.3,2.3,68,0.00,,,0.00,0.0,WeatherDisplay:10.37,2013-03-19 06:55:00,
2013-03-18 23:56:00,33.2,23.8,30.12,NW,306,2.3,2.3,68,0.00,,,0.00,0.0,WeatherDisplay:10.37,2013-03-19 06:56:00,
2013-03-18 23:58:00,33.1,23.7,30.11,NW,306,2.3,2.3,68,0.00,,,0.00,0.0,WeatherDisplay:10.37,2013-03-19 06:58:00,